Time,TemperatureF,DewpointF,PressureIn,WindDirection,WindDirectionDegrees,WindSpeedMPH,WindSpeedGustMPH,Humidity,HourlyPrecipIn,Conditions,Clouds,dailyrainin,SoftwareType,DateUTC
2013-01-07 00:02:00,37.7,35.9,30.29,WNW,286,0.0,0.0,93,0.00,,,0.00,Wunderground v.1.13,2013-01-07 06:02:00,
2013-01-07 00:04:00,37.7,35.9,30.29,WNW,286,0.0,0.0,93,0.00,,,0.00,Wunderground v.1.13,2013-01-07 06:04:00,
2013-01-07 00:08:00,37.6,35.8,30.29,WNW,286,0.0,0.0,93,0.00,,,0.00,Wunderground v.1.13,2013-01-07 06:08:00,
2013-01-07 00:09:00,37.6,35.8,30.29,WNW,286,0.0,0.0,93,0.00,,,0.00,Wunderground v.1.13,2013-01-07 06:09:00,
2013-01-07 00:10:00,37.4,35.6,30.29,WNW,286,0.0,0.0,93,0.00,,,0.00,Wunderground v.1.13,2013-01-07 06:10:00,
2013-01-07 00:12:00,37.4,35.6,30.29,WNW,286,0.0,0.0,93,0.00,,,0.00,Wunderground v.1.13,2013-01-07 06:12:00,
2013-01-07 00:16:00,37.4,35.6,30.29,WNW,286,0.0,0.0,93,0.00,,,0.00,Wunderground v.1.13,2013-01-07 06:16:00,
2013-01-07 00:17:00,37.4,35.6,30.29,WNW,286,0.0,0.0,93,0.00,,,0.00,Wunderground v.1.13,2013-01-07 06:17:00,
2013-01-07 00:19:00,37.4,35.8,30.29,WNW,286,0.0,0.0,94,0.00,,,0.00,Wunderground v.1.13,2013-01-07 06:19:00,
2013-01-07 00:22:00,37.4,35.8,30.29,WNW,286,0.0,0.0,94,0.00,,,0.00,Wunderground v.1.13,2013-01-07 06:22:00,
2013-01-07 00:25:00,37.3,35.5,30.29,WNW,286,0.0,0.0,93,0.00,,,0.00,Wunderground v.1.13,2013-01-07 06:25:00,
2013-01-07 00:27:00,37.3,35.5,30.29,WNW,286,0.0,0.0,93,0.00,,,0.00,Wunderground v.1.13,2013-01-07 06:27:00,
2013-01-07 00:30:00,37.1,35.3,30.29,WNW,286,0.0,0.0,93,0.00,,,0.00,Wunderground v.1.13,2013-01-07 06:30:00,
2013-01-07 00:31:00,37.0,35.2,30.30,WNW,286,0.0,0.0,93,0.00,,,0.00,Wunderground v.1.13,2013-01-07 06:31:00,
2013-01-07 00:32:00,37.0,35.2,30.30,WNW,286,0.0,0.0,93,0.00,,,0.00,Wunderground v.1.13,2013-01-07 06:32:00,
2013-01-07 00:34:00,37.0,35.2,30.30,WNW,286,0.0,0.0,93,0.00,,,0.00,Wunderground v.1.13,2013-01-07 06:34:00,
2013-01-07 00:36:00,36.8,35.0,30.30,WNW,286,0.0,0.0,93,0.00,,,0.00,Wunderground v.1.13,2013-01-07 06:36:00,
2013-01-07 00:37:00,36.8,35.0,30.30,WNW,286,0.0,0.0,93,0.00,,,0.00,Wunderground v.1.13,2013-01-07 06:37:00,
2013-01-07 00:42:00,36.6,34.8,30.30,WNW,286,0.0,0.0,93,0.00,,,0.00,Wunderground v.1.13,2013-01-07 06:42:00,
2013-01-07 00:45:00,36.4,34.6,30.30,WNW,286,0.0,0.0,93,0.00,,,0.00,Wunderground v.1.13,2013-01-07 06:45:00,
2013-01-07 00:46:00,36.4,34.6,30.29,WNW,286,0.0,0.0,93,0.00,,,0.00,Wunderground v.1.13,2013-01-07 06:46:00,
2013-01-07 00:48:00,36.3,34.5,30.29,WNW,286,0.0,0.0,93,0.00,,,0.00,Wunderground v.1.13,2013-01-07 06:48:00,
2013-01-07 00:50:00,36.0,34.2,30.29,WNW,286,0.0,0.0,93,0.00,,,0.00,Wunderground v.1.13,2013-01-07 06:50:00,
2013-01-07 00:51:00,36.0,34.2,30.29,WNW,286,0.0,0.0,93,0.00,,,0.00,Wunderground v.1.13,2013-01-07 06:51:00,
2013-01-07 00:53:00,35.8,34.0,30.29,WNW,286,0.0,0.0,93,0.00,,,0.00,Wunderground v.1.13,2013-01-07 06:53:00,
2013-01-07 00:56:00,35.7,33.9,30.29,WNW,286,0.0,0.0,93,0.00,,,0.00,Wunderground v.1.13,2013-01-07 06:56:00,
2013-01-07 00:58:00,35.7,33.9,30.29,WNW,286,0.0,0.0,93,0.00,,,0.00,Wunderground v.1.13,2013-01-07 06:58:00,
2013-01-07 01:00:00,35.7,33.9,30.29,WNW,286,0.0,0.0,93,0.00,,,0.00,Wunderground v.1.13,2013-01-07 07:00:00,
2013-01-07 01:03:00,35.5,33.7,30.30,WNW,286,0.0,0.0,93,0.00,,,0.00,Wunderground v.1.13,2013-01-07 07:03:00,
2013-01-07 01:05:00,35.4,33.6,30.30,WNW,286,0.0,0.0,93,0.00,,,0.00,Wunderground v.1.13,2013-01-07 07:05:00,
2013-01-07 01:06:00,35.2,33.4,30.30,WNW,286,0.0,0.0,93,0.00,,,0.00,Wunderground v.1.13,2013-01-07 07:06:00,
2013-01-07 01:08:00,35.1,33.3,30.30,WNW,286,0.0,0.0,93,0.00,,,0.00,Wunderground v.1.13,2013-01-07 07:08:00,
2013-01-07 01:09:00,35.1,33.3,30.30,WNW,286,0.0,0.0,93,0.00,,,0.00,Wunderground v.1.13,2013-01-07 07:09:00,
2013-01-07 01:13:00,34.9,33.3,30.30,WNW,286,0.0,0.0,94,0.00,,,0.00,Wunderground v.1.13,2013-01-07 07:13:00,
2013-01-07 01:14:00,34.9,33.3,30.30,WNW,286,0.0,0.0,94,0.00,,,0.00,Wunderground v.1.13,2013-01-07 07:14:00,
2013-01-07 01:15:00,34.9,33.3,30.30,WNW,286,0.0,0.0,94,0.00,,,0.00,Wunderground v.1.13,2013-01-07 07:15:00,
2013-01-07 01:18:00,34.8,33.2,30.31,WNW,286,0.0,0.0,94,0.00,,,0.00,Wunderground v.1.13,2013-01-07 07:18:00,
2013-01-07 01:20:00,34.8,33.2,30.31,WNW,286,0.0,0.0,94,0.00,,,0.00,Wunderground v.1.13,2013-01-07 07:20:00,
2013-01-07 01:22:00,34.8,33.2,30.31,WNW,286,0.0,0.0,94,0.00,,,0.00,Wunderground v.1.13,2013-01-07 07:22:00,
2013-01-07 01:23:00,34.8,33.2,30.31,WNW,286,0.0,0.0,94,0.00,,,0.00,Wunderground v.1.13,2013-01-07 07:23:00,
2013-01-07 01:25:00,34.8,33.2,30.31,WNW,286,0.0,0.0,94,0.00,,,0.00,Wunderground v.1.13,2013-01-07 07:25:00,
2013-01-07 01:28:00,34.8,33.2,30.31,WNW,286,0.0,0.0,94,0.00,,,0.00,Wunderground v.1.13,2013-01-07 07:28:00,
2013-01-07 01:30:00,34.8,33.2,30.31,WNW,286,0.0,0.0,94,0.00,,,0.00,Wunderground v.1.13,2013-01-07 07:30:00,
2013-01-07 01:32:00,34.6,33.1,30.31,WNW,286,0.0,0.0,94,0.00,,,0.00,Wunderground v.1.13,2013-01-07 07:32:00,
2013-01-07 01:34:00,34.6,33.1,30.31,WNW,286,0.0,0.0,94,0.00,,,0.00,Wunderground v.1.13,2013-01-07 07:34:00,
2013-01-07 01:36:00,34.5,33.0,30.31,WNW,286,0.0,0.0,94,0.00,,,0.00,Wunderground v.1.13,2013-01-07 07:36:00,
2013-01-07 01:37:00,34.3,32.8,30.31,WNW,286,0.0,0.0,94,0.00,,,0.00,Wunderground v.1.13,2013-01-07 07:37:00,
2013-01-07 01:41:00,33.7,31.9,30.31,WNW,286,0.0,0.0,93,0.00,,,0.00,Wunderground v.1.13,2013-01-07 07:41:00,
2013-01-07 01:42:00,33.7,31.9,30.31,WNW,286,0.0,0.0,93,0.00,,,0.00,Wunderground v.1.13,2013-01-07 07:42:00,
2013-01-07 01:43:00,33.7,31.9,30.31,WNW,286,0.0,0.0,93,0.00,,,0.00,Wunderground v.1.13,2013-01-07 07:43:00,
2013-01-07 01:45:00,33.6,32.1,30.31,WNW,286,0.0,0.0,94,0.00,,,0.00,Wunderground v.1.13,2013-01-07 07:45:00,
2013-01-07 01:47:00,33.6,32.1,30.31,WNW,286,0.0,0.0,94,0.00,,,0.00,Wunderground v.1.13,2013-01-07 07:47:00,
2013-01-07 01:48:00,33.6,32.1,30.31,WNW,286,0.0,0.0,94,0.00,,,0.00,Wunderground v.1.13,2013-01-07 07:48:00,
2013-01-07 01:49:00,33.7,32.2,30.31,WNW,286,0.0,0.0,94,0.00,,,0.00,Wunderground v.1.13,2013-01-07 07:49:00,
2013-01-07 01:53:00,33.7,32.2,30.31,WNW,286,0.0,0.0,94,0.00,,,0.00,Wunderground v.1.13,2013-01-07 07:53:00,
2013-01-07 01:54:00,33.7,32.2,30.31,WNW,286,0.0,0.0,94,0.00,,,0.00,Wunderground v.1.13,2013-01-07 07:54:00,
2013-01-07 01:55:00,33.7,32.2,30.31,WNW,286,0.0,0.0,94,0.00,,,0.00,Wunderground v.1.13,2013-01-07 07:55:00,
2013-01-07 01:56:00,33.7,32.2,30.31,WNW,286,0.0,0.0,94,0.00,,,0.00,Wunderground v.1.13,2013-01-07 07:56:00,
2013-01-07 01:59:00,33.5,32.0,30.31,WNW,286,0.0,0.0,94,0.00,,,0.00,Wunderground v.1.13,2013-01-07 07:59:00,
2013-01-07 02:00:00,33.5,32.0,30.31,WNW,286,0.0,0.0,94,0.00,,,0.00,Wunderground v.1.13,2013-01-07 08:00:00,
2013-01-07 02:01:00,33.5,32.0,30.31,WNW,286,0.0,0.0,94,0.00,,,0.00,Wunderground v.1.13,2013-01-07 08:01:00,
2013-01-07 02:04:00,33.3,31.8,30.31,WNW,286,0.0,0.0,94,0.00,,,0.00,Wunderground v.1.13,2013-01-07 08:04:00,
2013-01-07 02:05:00,33.2,31.7,30.31,WNW,286,0.0,0.0,94,0.00,,,0.00,Wunderground v.1.13,2013-01-07 08:05:00,
2013-01-07 02:06:00,33.2,31.7,30.31,WNW,286,0.0,0.0,94,0.00,,,0.00,Wunderground v.1.13,2013-01-07 08:06:00,
2013-01-07 02:09:00,33.0,31.5,30.31,WNW,286,0.0,0.0,94,0.00,,,0.00,Wunderground v.1.13,2013-01-07 08:09:00,
2013-01-07 02:11:00,32.9,31.4,30.31,WNW,286,0.0,0.0,94,0.00,,,0.00,Wunderground v.1.13,2013-01-07 08:11:00,
2013-01-07 02:14:00,32.7,31.2,30.31,WNW,286,0.0,0.0,94,0.00,,,0.00,Wunderground v.1.13,2013-01-07 08:14:00,
2013-01-07 02:16:00,32.7,31.2,30.31,WNW,286,0.0,0.0,94,0.00,,,0.00,Wunderground v.1.13,2013-01-07 08:16:00,
2013-01-07 02:20:00,32.6,31.1,30.31,WNW,286,0.0,0.0,94,0.00,,,0.00,Wunderground v.1.13,2013-01-07 08:20:00,
2013-01-07 02:21:00,32.6,31.1,30.31,WNW,286,0.0,0.0,94,0.00,,,0.00,Wunderground v.1.13,2013-01-07 08:21:00,
2013-01-07 02:25:00,32.4,30.9,30.31,WNW,286,0.0,0.0,94,0.00,,,0.00,Wunderground v.1.13,2013-01-07 08:25:00,
2013-01-07 02:26:00,32.4,30.9,30.31,WNW,286,0.0,0.0,94,0.00,,,0.00,Wunderground v.1.13,2013-01-07 08:26:00,
2013-01-07 02:27:00,32.4,30.9,30.31,WNW,286,0.0,0.0,94,0.00,,,0.00,Wunderground v.1.13,2013-01-07 08:27:00,
2013-01-07 02:30:00,32.3,30.8,30.31,WNW,286,0.0,0.0,94,0.00,,,0.00,Wunderground v.1.13,2013-01-07 08:30:00,
2013-01-07 02:31:00,32.3,30.8,30.31,WNW,286,0.0,0.0,94,0.00,,,0.00,Wunderground v.1.13,2013-01-07 08:31:00,
2013-01-07 02:32:00,32.3,30.8,30.31,WNW,286,0.0,0.0,94,0.00,,,0.00,Wunderground v.1.13,2013-01-07 08:32:00,
2013-01-07 02:35:00,32.3,30.8,30.31,WNW,286,0.0,0.0,94,0.00,,,0.00,Wunderground v.1.13,2013-01-07 08:35:00,
2013-01-07 02:36:00,32.3,30.8,30.31,WNW,286,0.0,0.0,94,0.00,,,0.00,Wunderground v.1.13,2013-01-07 08:36:00,
2013-01-07 02:37:00,32.3,30.8,30.31,WNW,286,0.0,0.0,94,0.00,,,0.00,Wunderground v.1.13,2013-01-07 08:37:00,
2013-01-07 02:41:00,32.3,30.8,30.31,WNW,286,0.0,0.0,94,0.00,,,0.00,Wunderground v.1.13,2013-01-07 08:41:00,
2013-01-07 02:42:00,32.3,30.8,30.31,WNW,286,0.0,0.0,94,0.00,,,0.00,Wunderground v.1.13,2013-01-07 08:42:00,
2013-01-07 02:46:00,32.1,30.6,30.31,WNW,286,0.0,0.0,94,0.00,,,0.00,Wunderground v.1.13,2013-01-07 08:46:00,
2013-01-07 02:47:00,32.1,30.6,30.31,WNW,286,0.0,0.0,94,0.00,,,0.00,Wunderground v.1.13,2013-01-07 08:47:00,
2013-01-07 02:48:00,32.1,30.6,30.31,WNW,286,0.0,0.0,94,0.00,,,0.00,Wunderground v.1.13,2013-01-07 08:48:00,
2013-01-07 02:51:00,32.0,30.5,30.31,WNW,286,0.0,0.0,94,0.00,,,0.00,Wunderground v.1.13,2013-01-07 08:51:00,
2013-01-07 02:52:00,32.0,30.5,30.31,WNW,286,0.0,0.0,94,0.00,,,0.00,Wunderground v.1.13,2013-01-07 08:52:00,
2013-01-07 02:53:00,31.8,30.3,30.31,WNW,286,0.0,0.0,94,0.00,,,0.00,Wunderground v.1.13,2013-01-07 08:53:00,
2013-01-07 02:56:00,31.5,30.0,30.31,WNW,286,0.0,0.0,94,0.00,,,0.00,Wunderground v.1.13,2013-01-07 08:56:00,
2013-01-07 02:57:00,31.5,30.0,30.31,WNW,286,0.0,0.0,94,0.00,,,0.00,Wunderground v.1.13,2013-01-07 08:57:00,
2013-01-07 02:58:00,31.5,30.0,30.31,WNW,286,0.0,0.0,94,0.00,,,0.00,Wunderground v.1.13,2013-01-07 08:58:00,
2013-01-07 03:02:00,31.4,29.9,30.31,WNW,286,0.0,0.0,94,0.00,,,0.00,Wunderground v.1.13,2013-01-07 09:02:00,
2013-01-07 03:03:00,31.4,29.9,30.31,WNW,286,0.0,0.0,94,0.00,,,0.00,Wunderground v.1.13,2013-01-07 09:03:00,
2013-01-07 03:04:00,31.4,29.9,30.31,WNW,286,0.0,0.0,94,0.00,,,0.00,Wunderground v.1.13,2013-01-07 09:04:00,
2013-01-07 03:07:00,31.4,29.9,30.31,WNW,286,0.0,0.0,94,0.00,,,0.00,Wunderground v.1.13,2013-01-07 09:07:00,
2013-01-07 03:08:00,31.4,29.9,30.31,WNW,286,0.0,0.0,94,0.00,,,0.00,Wunderground v.1.13,2013-01-07 09:08:00,
2013-01-07 03:09:00,31.4,29.9,30.31,WNW,286,0.0,0.0,94,0.00,,,0.00,Wunderground v.1.13,2013-01-07 09:09:00,
2013-01-07 03:12:00,31.2,29.7,30.31,WNW,286,0.0,0.0,94,0.00,,,0.00,Wunderground v.1.13,2013-01-07 09:12:00,
2013-01-07 03:13:00,31.2,29.7,30.31,WNW,286,0.0,0.0,94,0.00,,,0.00,Wunderground v.1.13,2013-01-07 09:13:00,
2013-01-07 03:14:00,31.2,29.7,30.31,WNW,286,0.0,0.0,94,0.00,,,0.00,Wunderground v.1.13,2013-01-07 09:14:00,
2013-01-07 03:17:00,31.1,29.6,30.31,WNW,286,0.0,0.0,94,0.00,,,0.00,Wunderground v.1.13,2013-01-07 09:17:00,
2013-01-07 03:18:00,31.1,29.6,30.31,WNW,286,0.0,0.0,94,0.00,,,0.00,Wunderground v.1.13,2013-01-07 09:18:00,
2013-01-07 03:19:00,31.1,29.6,30.31,WNW,286,0.0,0.0,94,0.00,,,0.00,Wunderground v.1.13,2013-01-07 09:19:00,
2013-01-07 03:23:00,31.1,29.6,30.31,WNW,286,0.0,0.0,94,0.00,,,0.00,Wunderground v.1.13,2013-01-07 09:23:00,
2013-01-07 03:24:00,31.1,29.6,30.31,WNW,286,0.0,0.0,94,0.00,,,0.00,Wunderground v.1.13,2013-01-07 09:24:00,
2013-01-07 03:25:00,31.1,29.6,30.31,WNW,286,0.0,0.0,94,0.00,,,0.00,Wunderground v.1.13,2013-01-07 09:25:00,
2013-01-07 03:28:00,31.1,29.6,30.31,WNW,286,0.0,0.0,94,0.00,,,0.00,Wunderground v.1.13,2013-01-07 09:28:00,
2013-01-07 03:29:00,31.1,29.6,30.31,WNW,286,0.0,0.0,94,0.00,,,0.00,Wunderground v.1.13,2013-01-07 09:29:00,
2013-01-07 03:30:00,30.9,29.4,30.31,WNW,286,0.0,0.0,94,0.00,,,0.00,Wunderground v.1.13,2013-01-07 09:30:00,
2013-01-07 03:33:00,30.9,29.4,30.31,WNW,286,0.0,0.0,94,0.00,,,0.00,Wunderground v.1.13,2013-01-07 09:33:00,
2013-01-07 03:34:00,30.9,29.4,30.31,WNW,286,0.0,0.0,94,0.00,,,0.00,Wunderground v.1.13,2013-01-07 09:34:00,
2013-01-07 03:36:00,30.8,29.3,30.31,WNW,286,0.0,0.0,94,0.00,,,0.00,Wunderground v.1.13,2013-01-07 09:36:00,
2013-01-07 03:38:00,30.8,29.3,30.31,WNW,286,0.0,0.0,94,0.00,,,0.00,Wunderground v.1.13,2013-01-07 09:38:00,
2013-01-07 03:39:00,30.8,29.3,30.31,WNW,286,0.0,0.0,94,0.00,,,0.00,Wunderground v.1.13,2013-01-07 09:39:00,
2013-01-07 03:41:00,30.6,29.1,30.31,WNW,286,0.0,0.0,94,0.00,,,0.00,Wunderground v.1.13,2013-01-07 09:41:00,
2013-01-07 03:44:00,30.6,29.1,30.31,WNW,286,0.0,0.0,94,0.00,,,0.00,Wunderground v.1.13,2013-01-07 09:44:00,
2013-01-07 03:46:00,30.6,29.1,30.31,WNW,286,0.0,0.0,94,0.00,,,0.00,Wunderground v.1.13,2013-01-07 09:46:00,
2013-01-07 03:49:00,30.5,29.0,30.31,WNW,286,0.0,0.0,94,0.00,,,0.00,Wunderground v.1.13,2013-01-07 09:49:00,
2013-01-07 03:50:00,30.5,29.0,30.31,WNW,286,0.0,0.0,94,0.00,,,0.00,Wunderground v.1.13,2013-01-07 09:50:00,
2013-01-07 03:51:00,30.5,29.0,30.31,WNW,286,0.0,0.0,94,0.00,,,0.00,Wunderground v.1.13,2013-01-07 09:51:00,
2013-01-07 03:54:00,30.5,29.0,30.31,WNW,286,0.0,0.0,94,0.00,,,0.00,Wunderground v.1.13,2013-01-07 09:54:00,
2013-01-07 03:55:00,30.5,29.0,30.31,WNW,286,0.0,0.0,94,0.00,,,0.00,Wunderground v.1.13,2013-01-07 09:55:00,
2013-01-07 03:56:00,30.5,29.0,30.31,WNW,286,0.0,0.0,94,0.00,,,0.00,Wunderground v.1.13,2013-01-07 09:56:00,
2013-01-07 03:59:00,30.5,29.0,30.31,WNW,286,0.0,0.0,94,0.00,,,0.00,Wunderground v.1.13,2013-01-07 09:59:00,
2013-01-07 04:00:00,30.5,29.0,30.31,WNW,286,0.0,0.0,94,0.00,,,0.00,Wunderground v.1.13,2013-01-07 10:00:00,
2013-01-07 04:01:00,30.5,29.2,30.31,WNW,286,0.0,0.0,95,0.00,,,0.00,Wunderground v.1.13,2013-01-07 10:01:00,
2013-01-07 04:04:00,30.5,29.2,30.31,WNW,286,0.0,0.0,95,0.00,,,0.00,Wunderground v.1.13,2013-01-07 10:04:00,
2013-01-07 04:05:00,30.5,29.2,30.31,WNW,286,0.0,0.0,95,0.00,,,0.00,Wunderground v.1.13,2013-01-07 10:05:00,
2013-01-07 04:06:00,30.5,29.2,30.31,WNW,286,0.0,0.0,95,0.00,,,0.00,Wunderground v.1.13,2013-01-07 10:06:00,
2013-01-07 04:09:00,30.6,29.3,30.31,WNW,286,0.0,0.0,95,0.00,,,0.00,Wunderground v.1.13,2013-01-07 10:09:00,
2013-01-07 04:11:00,30.6,29.3,30.31,WNW,286,0.0,0.0,95,0.00,,,0.00,Wunderground v.1.13,2013-01-07 10:11:00,
2013-01-07 04:14:00,30.6,29.3,30.31,WNW,286,0.0,0.0,95,0.00,,,0.00,Wunderground v.1.13,2013-01-07 10:14:00,
2013-01-07 04:16:00,30.6,29.3,30.31,WNW,286,0.0,0.0,95,0.00,,,0.00,Wunderground v.1.13,2013-01-07 10:16:00,
2013-01-07 04:19:00,30.6,29.3,30.31,WNW,286,0.0,0.0,95,0.00,,,0.00,Wunderground v.1.13,2013-01-07 10:19:00,
2013-01-07 04:21:00,30.6,29.3,30.31,WNW,286,0.0,0.0,95,0.00,,,0.00,Wunderground v.1.13,2013-01-07 10:21:00,
2013-01-07 04:25:00,30.6,29.3,30.31,WNW,286,0.0,0.0,95,0.00,,,0.00,Wunderground v.1.13,2013-01-07 10:25:00,
2013-01-07 04:26:00,30.6,29.3,30.31,WNW,286,0.0,0.0,95,0.00,,,0.00,Wunderground v.1.13,2013-01-07 10:26:00,
2013-01-07 04:30:00,30.6,29.3,30.31,WNW,286,0.0,0.0,95,0.00,,,0.00,Wunderground v.1.13,2013-01-07 10:30:00,
2013-01-07 04:31:00,30.6,29.3,30.31,WNW,286,0.0,0.0,95,0.00,,,0.00,Wunderground v.1.13,2013-01-07 10:31:00,
2013-01-07 04:32:00,30.6,29.3,30.31,WNW,286,0.0,0.0,95,0.00,,,0.00,Wunderground v.1.13,2013-01-07 10:32:00,
2013-01-07 04:35:00,30.6,29.3,30.31,WNW,286,0.0,0.0,95,0.00,,,0.00,Wunderground v.1.13,2013-01-07 10:35:00,
2013-01-07 04:36:00,30.6,29.3,30.31,WNW,286,0.0,0.0,95,0.00,,,0.00,Wunderground v.1.13,2013-01-07 10:36:00,
2013-01-07 04:37:00,30.6,29.3,30.31,WNW,286,0.0,0.0,95,0.00,,,0.00,Wunderground v.1.13,2013-01-07 10:37:00,
2013-01-07 04:40:00,30.5,29.2,30.31,WNW,286,0.0,0.0,95,0.00,,,0.00,Wunderground v.1.13,2013-01-07 10:40:00,
2013-01-07 04:41:00,30.5,29.2,30.31,WNW,286,0.0,0.0,95,0.00,,,0.00,Wunderground v.1.13,2013-01-07 10:41:00,
2013-01-07 04:42:00,30.5,29.2,30.31,WNW,286,0.0,0.0,95,0.00,,,0.00,Wunderground v.1.13,2013-01-07 10:42:00,
2013-01-07 04:46:00,30.5,29.2,30.31,WNW,286,0.0,0.0,95,0.00,,,0.00,Wunderground v.1.13,2013-01-07 10:46:00,
2013-01-07 04:47:00,30.5,29.2,30.31,WNW,286,0.0,0.0,95,0.00,,,0.00,Wunderground v.1.13,2013-01-07 10:47:00,
2013-01-07 04:51:00,30.3,29.0,30.31,WNW,286,0.0,0.0,95,0.00,,,0.00,Wunderground v.1.13,2013-01-07 10:51:00,
2013-01-07 04:52:00,30.3,29.0,30.31,WNW,286,0.0,0.0,95,0.00,,,0.00,Wunderground v.1.13,2013-01-07 10:52:00,
2013-01-07 04:53:00,30.3,29.0,30.31,WNW,286,0.0,0.0,95,0.00,,,0.00,Wunderground v.1.13,2013-01-07 10:53:00,
2013-01-07 04:56:00,30.3,29.0,30.31,WNW,286,0.0,0.0,95,0.00,,,0.00,Wunderground v.1.13,2013-01-07 10:56:00,
2013-01-07 04:57:00,30.3,29.0,30.31,WNW,286,0.0,0.0,95,0.00,,,0.00,Wunderground v.1.13,2013-01-07 10:57:00,
2013-01-07 04:58:00,30.3,29.0,30.31,WNW,286,0.0,0.0,95,0.00,,,0.00,Wunderground v.1.13,2013-01-07 10:58:00,
2013-01-07 05:01:00,30.2,28.9,30.30,WNW,286,0.0,0.0,95,0.00,,,0.00,Wunderground v.1.13,2013-01-07 11:01:00,
2013-01-07 05:02:00,30.2,28.9,30.30,WNW,286,0.0,0.0,95,0.00,,,0.00,Wunderground v.1.13,2013-01-07 11:02:00,
2013-01-07 05:03:00,30.2,28.9,30.30,WNW,286,0.0,0.0,95,0.00,,,0.00,Wunderground v.1.13,2013-01-07 11:03:00,
2013-01-07 05:06:00,30.2,28.9,30.30,WNW,286,0.0,0.0,95,0.00,,,0.00,Wunderground v.1.13,2013-01-07 11:06:00,
2013-01-07 05:07:00,30.2,28.9,30.30,WNW,286,0.0,0.0,95,0.00,,,0.00,Wunderground v.1.13,2013-01-07 11:07:00,
2013-01-07 05:08:00,30.2,28.9,30.30,WNW,286,0.0,0.0,95,0.00,,,0.00,Wunderground v.1.13,2013-01-07 11:08:00,
2013-01-07 05:11:00,30.1,28.8,30.30,WNW,286,0.0,0.0,95,0.00,,,0.00,Wunderground v.1.13,2013-01-07 11:11:00,
2013-01-07 05:12:00,30.1,28.8,30.30,WNW,286,0.0,0.0,95,0.00,,,0.00,Wunderground v.1.13,2013-01-07 11:12:00,
2013-01-07 05:13:00,30.1,28.8,30.30,WNW,286,0.0,0.0,95,0.00,,,0.00,Wunderground v.1.13,2013-01-07 11:13:00,
2013-01-07 05:17:00,29.9,28.6,30.31,WNW,286,0.0,0.0,95,0.00,,,0.00,Wunderground v.1.13,2013-01-07 11:17:00,
2013-01-07 05:18:00,29.9,28.6,30.31,WNW,286,0.0,0.0,95,0.00,,,0.00,Wunderground v.1.13,2013-01-07 11:18:00,
2013-01-07 05:22:00,29.6,28.1,30.31,WNW,286,0.0,0.0,94,0.00,,,0.00,Wunderground v.1.13,2013-01-07 11:22:00,
2013-01-07 05:23:00,29.5,28.0,30.31,WNW,286,0.0,0.0,94,0.00,,,0.00,Wunderground v.1.13,2013-01-07 11:23:00,
2013-01-07 05:24:00,29.5,28.0,30.31,WNW,286,0.0,0.0,94,0.00,,,0.00,Wunderground v.1.13,2013-01-07 11:24:00,
2013-01-07 05:27:00,29.3,28.0,30.31,WNW,286,0.0,0.0,95,0.00,,,0.00,Wunderground v.1.13,2013-01-07 11:27:00,
2013-01-07 05:28:00,29.3,28.0,30.31,WNW,286,0.0,0.0,95,0.00,,,0.00,Wunderground v.1.13,2013-01-07 11:28:00,
2013-01-07 05:29:00,29.3,28.0,30.31,WNW,286,0.0,0.0,95,0.00,,,0.00,Wunderground v.1.13,2013-01-07 11:29:00,
2013-01-07 05:33:00,29.2,27.9,30.32,WNW,286,0.0,0.0,95,0.00,,,0.00,Wunderground v.1.13,2013-01-07 11:33:00,
2013-01-07 05:34:00,29.2,27.9,30.32,WNW,286,0.0,0.0,95,0.00,,,0.00,Wunderground v.1.13,2013-01-07 11:34:00,
2013-01-07 05:38:00,29.2,27.9,30.32,WNW,286,0.0,0.0,95,0.00,,,0.00,Wunderground v.1.13,2013-01-07 11:38:00,
2013-01-07 05:39:00,29.2,27.9,30.32,WNW,286,0.0,0.0,95,0.00,,,0.00,Wunderground v.1.13,2013-01-07 11:39:00,
2013-01-07 05:40:00,29.2,27.9,30.32,WNW,286,0.0,0.0,95,0.00,,,0.00,Wunderground v.1.13,2013-01-07 11:40:00,
2013-01-07 05:43:00,29.2,27.9,30.32,WNW,286,0.0,0.0,95,0.00,,,0.00,Wunderground v.1.13,2013-01-07 11:43:00,
2013-01-07 05:44:00,29.2,27.9,30.32,WNW,286,0.0,0.0,95,0.00,,,0.00,Wunderground v.1.13,2013-01-07 11:44:00,
2013-01-07 05:45:00,29.2,27.9,30.32,WNW,286,0.0,0.0,95,0.00,,,0.00,Wunderground v.1.13,2013-01-07 11:45:00,
2013-01-07 05:48:00,29.0,27.7,30.33,WNW,286,0.0,0.0,95,0.00,,,0.00,Wunderground v.1.13,2013-01-07 11:48:00,
2013-01-07 05:49:00,29.0,27.7,30.33,WNW,286,0.0,0.0,95,0.00,,,0.00,Wunderground v.1.13,2013-01-07 11:49:00,
2013-01-07 05:51:00,29.0,27.7,30.33,WNW,286,0.0,0.0,95,0.00,,,0.00,Wunderground v.1.13,2013-01-07 11:51:00,
2013-01-07 05:53:00,29.0,27.7,30.33,WNW,286,0.0,0.0,95,0.00,,,0.00,Wunderground v.1.13,2013-01-07 11:53:00,
2013-01-07 05:54:00,28.9,27.6,30.33,WNW,286,0.0,0.0,95,0.00,,,0.00,Wunderground v.1.13,2013-01-07 11:54:00,
2013-01-07 05:56:00,28.9,27.6,30.33,WNW,286,0.0,0.0,95,0.00,,,0.00,Wunderground v.1.13,2013-01-07 11:56:00,
2013-01-07 05:58:00,28.9,27.4,30.33,WNW,286,0.0,0.0,94,0.00,,,0.00,Wunderground v.1.13,2013-01-07 11:58:00,
2013-01-07 05:59:00,28.7,27.4,30.33,WNW,286,0.0,0.0,95,0.00,,,0.00,Wunderground v.1.13,2013-01-07 11:59:00,
2013-01-07 06:01:00,28.7,27.4,30.34,WNW,286,0.0,0.0,95,0.00,,,0.00,Wunderground v.1.13,2013-01-07 12:01:00,
2013-01-07 06:03:00,28.7,27.4,30.34,WNW,286,0.0,0.0,95,0.00,,,0.00,Wunderground v.1.13,2013-01-07 12:03:00,
2013-01-07 06:04:00,28.7,27.4,30.34,WNW,286,0.0,0.0,95,0.00,,,0.00,Wunderground v.1.13,2013-01-07 12:04:00,
2013-01-07 06:06:00,28.7,27.4,30.34,WNW,286,0.0,0.0,95,0.00,,,0.00,Wunderground v.1.13,2013-01-07 12:06:00,
2013-01-07 06:09:00,28.7,27.4,30.34,WNW,286,0.0,0.0,95,0.00,,,0.00,Wunderground v.1.13,2013-01-07 12:09:00,
2013-01-07 06:11:00,28.7,27.4,30.34,WNW,286,0.0,0.0,95,0.00,,,0.00,Wunderground v.1.13,2013-01-07 12:11:00,
2013-01-07 06:14:00,28.6,27.1,30.34,WNW,286,0.0,0.0,94,0.00,,,0.00,Wunderground v.1.13,2013-01-07 12:14:00,
2013-01-07 06:15:00,28.6,27.1,30.34,WNW,286,0.0,0.0,94,0.00,,,0.00,Wunderground v.1.13,2013-01-07 12:15:00,
2013-01-07 06:16:00,28.6,27.1,30.34,WNW,286,0.0,0.0,94,0.00,,,0.00,Wunderground v.1.13,2013-01-07 12:16:00,
2013-01-07 06:19:00,28.6,27.1,30.34,WNW,286,0.0,0.0,94,0.00,,,0.00,Wunderground v.1.13,2013-01-07 12:19:00,
2013-01-07 06:20:00,28.4,26.9,30.34,WNW,286,0.0,0.0,94,0.00,,,0.00,Wunderground v.1.13,2013-01-07 12:20:00,
2013-01-07 06:21:00,28.4,26.9,30.34,WNW,286,0.0,0.0,94,0.00,,,0.00,Wunderground v.1.13,2013-01-07 12:21:00,
2013-01-07 06:24:00,28.4,26.9,30.34,WNW,286,0.0,0.0,94,0.00,,,0.00,Wunderground v.1.13,2013-01-07 12:24:00,
2013-01-07 06:25:00,28.4,26.9,30.34,WNW,286,0.0,0.0,94,0.00,,,0.00,Wunderground v.1.13,2013-01-07 12:25:00,
2013-01-07 06:26:00,28.4,26.9,30.34,WNW,286,0.0,0.0,94,0.00,,,0.00,Wunderground v.1.13,2013-01-07 12:26:00,
2013-01-07 06:30:00,28.4,26.9,30.34,WNW,286,0.0,0.0,94,0.00,,,0.00,Wunderground v.1.13,2013-01-07 12:30:00,
2013-01-07 06:31:00,28.4,26.9,30.35,WNW,286,0.0,0.0,94,0.00,,,0.00,Wunderground v.1.13,2013-01-07 12:31:00,
2013-01-07 06:35:00,28.4,27.2,30.35,WNW,286,0.0,0.0,95,0.00,,,0.00,Wunderground v.1.13,2013-01-07 12:35:00,
2013-01-07 06:36:00,28.4,27.2,30.35,WNW,286,0.0,0.0,95,0.00,,,0.00,Wunderground v.1.13,2013-01-07 12:36:00,
2013-01-07 06:40:00,28.4,27.2,30.35,WNW,286,0.0,0.0,95,0.00,,,0.00,Wunderground v.1.13,2013-01-07 12:40:00,
2013-01-07 06:41:00,28.4,27.2,30.35,WNW,286,0.0,0.0,95,0.00,,,0.00,Wunderground v.1.13,2013-01-07 12:41:00,
2013-01-07 06:45:00,28.4,26.9,30.35,WNW,286,0.0,0.0,94,0.00,,,0.00,Wunderground v.1.13,2013-01-07 12:45:00,
2013-01-07 06:46:00,28.4,26.9,30.35,WNW,286,0.0,0.0,94,0.00,,,0.00,Wunderground v.1.13,2013-01-07 12:46:00,
2013-01-07 06:47:00,28.4,26.9,30.35,WNW,286,0.0,0.0,94,0.00,,,0.00,Wunderground v.1.13,2013-01-07 12:47:00,
2013-01-07 06:50:00,28.3,26.8,30.35,WNW,286,0.0,0.0,94,0.00,,,0.00,Wunderground v.1.13,2013-01-07 12:50:00,
2013-01-07 06:51:00,28.3,26.8,30.35,WNW,286,0.0,0.0,94,0.00,,,0.00,Wunderground v.1.13,2013-01-07 12:51:00,
2013-01-07 06:52:00,28.3,26.8,30.35,WNW,286,0.0,0.0,94,0.00,,,0.00,Wunderground v.1.13,2013-01-07 12:52:00,
2013-01-07 06:55:00,28.1,26.6,30.35,WNW,286,0.0,0.0,94,0.00,,,0.00,Wunderground v.1.13,2013-01-07 12:55:00,
2013-01-07 06:56:00,28.1,26.6,30.35,WNW,286,0.0,0.0,94,0.00,,,0.00,Wunderground v.1.13,2013-01-07 12:56:00,
2013-01-07 06:58:00,28.1,26.6,30.35,WNW,286,0.0,0.0,94,0.00,,,0.00,Wunderground v.1.13,2013-01-07 12:58:00,
2013-01-07 07:00:00,28.1,26.6,30.35,WNW,286,0.0,0.0,94,0.00,,,0.00,Wunderground v.1.13,2013-01-07 13:00:00,
2013-01-07 07:01:00,28.1,26.6,30.36,WNW,286,0.0,0.0,94,0.00,,,0.00,Wunderground v.1.13,2013-01-07 13:01:00,
2013-01-07 07:03:00,28.3,27.1,30.36,WNW,286,0.0,0.0,95,0.00,,,0.00,Wunderground v.1.13,2013-01-07 13:03:00,
2013-01-07 07:05:00,28.3,27.1,30.36,WNW,286,0.0,0.0,95,0.00,,,0.00,Wunderground v.1.13,2013-01-07 13:05:00,
2013-01-07 07:06:00,28.3,27.1,30.36,WNW,286,0.0,0.0,95,0.00,,,0.00,Wunderground v.1.13,2013-01-07 13:06:00,
2013-01-07 07:08:00,28.4,27.2,30.36,WNW,286,0.0,0.0,95,0.00,,,0.00,Wunderground v.1.13,2013-01-07 13:08:00,
2013-01-07 07:11:00,28.4,27.2,30.36,WNW,286,0.0,0.0,95,0.00,,,0.00,Wunderground v.1.13,2013-01-07 13:11:00,
2013-01-07 07:13:00,28.6,27.4,30.36,WNW,286,0.0,0.0,95,0.00,,,0.00,Wunderground v.1.13,2013-01-07 13:13:00,
2013-01-07 07:16:00,28.6,27.4,30.36,WNW,286,0.0,0.0,95,0.00,,,0.00,Wunderground v.1.13,2013-01-07 13:16:00,
2013-01-07 07:18:00,28.7,27.4,30.36,WNW,286,0.0,1.0,95,0.00,,,0.00,Wunderground v.1.13,2013-01-07 13:18:00,
2013-01-07 07:21:00,28.9,27.6,30.36,WNW,286,0.0,0.0,95,0.00,,,0.00,Wunderground v.1.13,2013-01-07 13:21:00,
2013-01-07 07:22:00,28.9,27.6,30.36,WNW,286,0.0,1.0,95,0.00,,,0.00,Wunderground v.1.13,2013-01-07 13:22:00,
2013-01-07 07:23:00,28.9,27.6,30.36,WNW,286,0.0,2.0,95,0.00,,,0.00,Wunderground v.1.13,2013-01-07 13:23:00,
2013-01-07 07:26:00,29.0,27.7,30.36,WNW,286,1.0,2.0,95,0.00,,,0.00,Wunderground v.1.13,2013-01-07 13:26:00,
2013-01-07 07:27:00,29.0,27.7,30.36,WNW,286,2.0,2.0,95,0.00,,,0.00,Wunderground v.1.13,2013-01-07 13:27:00,
2013-01-07 07:29:00,29.2,27.9,30.36,WNW,286,0.0,2.0,95,0.00,,,0.00,Wunderground v.1.13,2013-01-07 13:29:00,
2013-01-07 07:31:00,29.2,27.9,30.35,WNW,286,0.0,1.0,95,0.00,,,0.00,Wunderground v.1.13,2013-01-07 13:31:00,
2013-01-07 07:32:00,29.2,27.9,30.35,WNW,286,0.0,1.0,95,0.00,,,0.00,Wunderground v.1.13,2013-01-07 13:32:00,
2013-01-07 07:34:00,29.3,28.0,30.35,WNW,286,0.0,1.0,95,0.00,,,0.00,Wunderground v.1.13,2013-01-07 13:34:00,
2013-01-07 07:36:00,29.5,28.2,30.35,WNW,286,0.0,1.0,95,0.00,,,0.00,Wunderground v.1.13,2013-01-07 13:36:00,
2013-01-07 07:37:00,29.5,28.2,30.35,WNW,286,0.0,1.0,95,0.00,,,0.00,Wunderground v.1.13,2013-01-07 13:37:00,
2013-01-07 07:39:00,29.5,28.2,30.35,WNW,286,0.0,1.0,95,0.00,,,0.00,Wunderground v.1.13,2013-01-07 13:39:00,
2013-01-07 07:42:00,29.5,28.2,30.35,WNW,286,0.0,0.0,95,0.00,,,0.00,Wunderground v.1.13,2013-01-07 13:42:00,
2013-01-07 07:44:00,29.6,28.3,30.35,WNW,286,0.0,0.0,95,0.00,,,0.00,Wunderground v.1.13,2013-01-07 13:44:00,
2013-01-07 07:47:00,29.6,28.3,30.36,WNW,286,0.0,0.0,95,0.00,,,0.00,Wunderground v.1.13,2013-01-07 13:47:00,
2013-01-07 07:49:00,29.8,28.5,30.36,WNW,286,1.0,1.0,95,0.00,,,0.00,Wunderground v.1.13,2013-01-07 13:49:00,
2013-01-07 07:52:00,30.3,29.3,30.36,WNW,286,1.0,2.0,96,0.00,,,0.00,Wunderground v.1.13,2013-01-07 13:52:00,
2013-01-07 07:54:00,30.9,30.1,30.36,WNW,286,0.0,1.0,97,0.00,,,0.00,Wunderground v.1.13,2013-01-07 13:54:00,
2013-01-07 07:57:00,31.8,31.3,30.36,NNE,26,1.0,4.0,98,0.00,,,0.00,Wunderground v.1.13,2013-01-07 13:57:00,
2013-01-07 07:58:00,31.8,31.3,30.36,NNE,26,2.0,4.0,98,0.00,,,0.00,Wunderground v.1.13,2013-01-07 13:58:00,
2013-01-07 08:00:00,32.7,32.2,30.36,NNE,15,2.0,3.0,98,0.00,,,0.00,Wunderground v.1.13,2013-01-07 14:00:00,
2013-01-07 08:02:00,33.2,32.7,30.35,North,9,3.0,4.0,98,0.00,,,0.00,Wunderground v.1.13,2013-01-07 14:02:00,
2013-01-07 08:03:00,33.3,32.8,30.35,North,360,3.0,4.0,98,0.00,,,0.00,Wunderground v.1.13,2013-01-07 14:03:00,
2013-01-07 08:05:00,33.6,33.1,30.35,North,360,0.0,3.0,98,0.00,,,0.00,Wunderground v.1.13,2013-01-07 14:05:00,
2013-01-07 08:07:00,33.9,33.4,30.35,SSE,161,0.0,3.0,98,0.00,,,0.00,Wunderground v.1.13,2013-01-07 14:07:00,
2013-01-07 08:08:00,33.9,33.4,30.35,SSE,161,0.0,3.0,98,0.00,,,0.00,Wunderground v.1.13,2013-01-07 14:08:00,
2013-01-07 08:11:00,34.2,33.4,30.35,SSE,161,0.0,1.0,97,0.00,,,0.00,Wunderground v.1.13,2013-01-07 14:11:00,
2013-01-07 08:13:00,34.3,33.5,30.35,SSE,148,0.0,2.0,97,0.00,,,0.00,Wunderground v.1.13,2013-01-07 14:13:00,
2013-01-07 08:16:00,34.6,33.8,30.36,NNE,31,0.0,2.0,97,0.00,,,0.01,Wunderground v.1.13,2013-01-07 14:16:00,
2013-01-07 08:18:00,35.1,34.3,30.36,NNE,31,0.0,2.0,97,0.00,,,0.01,Wunderground v.1.13,2013-01-07 14:18:00,
2013-01-07 08:19:00,35.2,34.4,30.36,East,84,1.0,2.0,97,0.00,,,0.01,Wunderground v.1.13,2013-01-07 14:19:00,
2013-01-07 08:21:00,35.5,34.7,30.36,East,84,0.0,1.0,97,0.00,,,0.01,Wunderground v.1.13,2013-01-07 14:21:00,
2013-01-07 08:23:00,36.1,35.3,30.36,East,84,0.0,1.0,97,0.00,,,0.01,Wunderground v.1.13,2013-01-07 14:23:00,
2013-01-07 08:24:00,36.1,35.3,30.36,East,84,0.0,1.0,97,0.00,,,0.01,Wunderground v.1.13,2013-01-07 14:24:00,
2013-01-07 08:26:00,36.6,35.6,30.36,East,84,0.0,0.0,96,0.00,,,0.01,Wunderground v.1.13,2013-01-07 14:26:00,
2013-01-07 08:29:00,37.0,35.4,30.36,ENE,65,0.0,2.0,94,0.00,,,0.01,Wunderground v.1.13,2013-01-07 14:29:00,
2013-01-07 08:31:00,37.3,35.5,30.36,NNE,22,2.0,3.0,93,0.00,,,0.01,Wunderground v.1.13,2013-01-07 14:31:00,
2013-01-07 08:34:00,37.6,34.4,30.36,North,5,1.0,3.0,88,0.00,,,0.01,Wunderground v.1.13,2013-01-07 14:34:00,
2013-01-07 08:36:00,38.0,34.5,30.36,North,9,0.0,2.0,87,0.00,,,0.01,Wunderground v.1.13,2013-01-07 14:36:00,
2013-01-07 08:39:00,38.4,34.0,30.36,North,9,2.0,3.0,84,0.00,,,0.01,Wunderground v.1.13,2013-01-07 14:39:00,
2013-01-07 08:41:00,38.6,33.9,30.36,North,360,4.0,4.0,83,0.00,,,0.01,Wunderground v.1.13,2013-01-07 14:41:00,
2013-01-07 08:44:00,38.6,33.6,30.36,North,360,4.0,6.0,82,0.00,,,0.01,Wunderground v.1.13,2013-01-07 14:44:00,
2013-01-07 08:45:00,38.7,33.7,30.36,North,360,0.0,2.0,82,0.00,,,0.01,Wunderground v.1.13,2013-01-07 14:45:00,
2013-01-07 08:46:00,38.8,33.8,30.36,North,360,0.0,4.0,82,0.00,,,0.01,Wunderground v.1.13,2013-01-07 14:46:00,
2013-01-07 08:49:00,39.3,33.6,30.36,North,360,2.0,5.0,80,0.00,,,0.01,Wunderground v.1.13,2013-01-07 14:49:00,
2013-01-07 08:50:00,39.3,33.6,30.36,North,360,1.0,2.0,80,0.00,,,0.01,Wunderground v.1.13,2013-01-07 14:50:00,
2013-01-07 08:52:00,39.4,33.7,30.36,NNE,13,5.0,5.0,80,0.00,,,0.01,Wunderground v.1.13,2013-01-07 14:52:00,
2013-01-07 08:55:00,39.6,33.6,30.36,North,9,3.0,4.0,79,0.00,,,0.01,Wunderground v.1.13,2013-01-07 14:55:00,
2013-01-07 08:57:00,39.6,33.3,30.36,North,360,4.0,6.0,78,0.00,,,0.01,Wunderground v.1.13,2013-01-07 14:57:00,
2013-01-07 09:00:00,39.6,33.3,30.36,North,5,4.0,4.0,78,0.00,,,0.01,Wunderground v.1.13,2013-01-07 15:00:00,
2013-01-07 09:02:00,39.7,33.4,30.35,North,360,5.0,7.0,78,0.00,,,0.01,Wunderground v.1.13,2013-01-07 15:02:00,
2013-01-07 09:05:00,39.9,33.6,30.35,NNE,19,4.0,5.0,78,0.00,,,0.01,Wunderground v.1.13,2013-01-07 15:05:00,
2013-01-07 09:07:00,40.3,34.0,30.35,North,11,0.0,5.0,78,0.00,,,0.01,Wunderground v.1.13,2013-01-07 15:07:00,
2013-01-07 09:10:00,40.9,33.9,30.35,North,360,1.0,3.0,76,0.00,,,0.01,Wunderground v.1.13,2013-01-07 15:10:00,
2013-01-07 09:11:00,40.9,33.9,30.35,North,351,3.0,3.0,76,0.00,,,0.01,Wunderground v.1.13,2013-01-07 15:11:00,
2013-01-07 09:12:00,41.0,33.7,30.35,North,351,2.0,5.0,75,0.00,,,0.01,Wunderground v.1.13,2013-01-07 15:12:00,
2013-01-07 09:15:00,41.0,33.7,30.35,North,360,2.0,5.0,75,0.00,,,0.01,Wunderground v.1.13,2013-01-07 15:15:00,
2013-01-07 09:16:00,41.0,33.7,30.36,North,360,2.0,5.0,75,0.00,,,0.01,Wunderground v.1.13,2013-01-07 15:16:00,
2013-01-07 09:17:00,41.1,33.8,30.36,North,360,7.0,7.0,75,0.00,,,0.01,Wunderground v.1.13,2013-01-07 15:17:00,
2013-01-07 09:21:00,41.7,34.0,30.36,NE,37,1.0,4.0,74,0.00,,,0.01,Wunderground v.1.13,2013-01-07 15:21:00,
2013-01-07 09:22:00,41.9,33.9,30.36,North,360,2.0,5.0,73,0.00,,,0.01,Wunderground v.1.13,2013-01-07 15:22:00,
2013-01-07 09:26:00,42.3,34.3,30.36,North,360,2.0,3.0,73,0.00,,,0.01,Wunderground v.1.13,2013-01-07 15:26:00,
2013-01-07 09:28:00,42.4,34.0,30.36,North,360,0.0,3.0,72,0.00,,,0.01,Wunderground v.1.13,2013-01-07 15:28:00,
2013-01-07 09:31:00,42.9,33.8,30.36,North,351,2.0,4.0,70,0.00,,,0.01,Wunderground v.1.13,2013-01-07 15:31:00,
2013-01-07 09:33:00,43.0,34.6,30.36,North,351,0.0,4.0,72,0.00,,,0.01,Wunderground v.1.13,2013-01-07 15:33:00,
2013-01-07 09:36:00,43.4,34.3,30.36,NNW,348,0.0,4.0,70,0.00,,,0.01,Wunderground v.1.13,2013-01-07 15:36:00,
2013-01-07 09:39:00,43.7,33.8,30.36,North,360,1.0,5.0,68,0.00,,,0.01,Wunderground v.1.13,2013-01-07 15:39:00,
2013-01-07 09:41:00,44.0,34.1,30.36,WNW,298,0.0,2.0,68,0.00,,,0.01,Wunderground v.1.13,2013-01-07 15:41:00,
2013-01-07 09:44:00,43.9,33.6,30.36,East,84,0.0,3.0,67,0.00,,,0.01,Wunderground v.1.13,2013-01-07 15:44:00,
2013-01-07 09:46:00,44.1,33.8,30.37,North,9,0.0,4.0,67,0.00,,,0.01,Wunderground v.1.13,2013-01-07 15:46:00,
2013-01-07 09:49:00,44.7,34.8,30.37,North,9,1.0,4.0,68,0.00,,,0.01,Wunderground v.1.13,2013-01-07 15:49:00,
2013-01-07 09:51:00,45.0,34.3,30.37,North,9,0.0,1.0,66,0.00,,,0.01,Wunderground v.1.13,2013-01-07 15:51:00,
2013-01-07 09:52:00,45.0,34.3,30.37,North,9,0.0,1.0,66,0.00,,,0.01,Wunderground v.1.13,2013-01-07 15:52:00,
2013-01-07 09:54:00,45.4,34.7,30.37,North,9,0.0,3.0,66,0.00,,,0.01,Wunderground v.1.13,2013-01-07 15:54:00,
2013-01-07 09:56:00,46.0,34.9,30.37,North,9,0.0,2.0,65,0.00,,,0.01,Wunderground v.1.13,2013-01-07 15:56:00,
2013-01-07 09:57:00,46.0,34.1,30.37,North,9,0.0,2.0,63,0.00,,,0.01,Wunderground v.1.13,2013-01-07 15:57:00,
2013-01-07 09:59:00,46.2,34.3,30.37,North,9,0.0,2.0,63,0.00,,,0.01,Wunderground v.1.13,2013-01-07 15:59:00,
2013-01-07 10:01:00,46.2,33.9,30.37,NNE,14,0.0,2.0,62,0.00,,,0.01,Wunderground v.1.13,2013-01-07 16:01:00,
2013-01-07 10:02:00,46.2,33.9,30.37,NNE,14,0.0,2.0,62,0.00,,,0.01,Wunderground v.1.13,2013-01-07 16:02:00,
2013-01-07 10:04:00,46.8,34.9,30.37,NNE,14,1.0,2.0,63,0.00,,,0.01,Wunderground v.1.13,2013-01-07 16:04:00,
2013-01-07 10:07:00,46.8,35.3,30.37,North,10,0.0,3.0,64,0.00,,,0.01,Wunderground v.1.13,2013-01-07 16:07:00,
2013-01-07 10:09:00,46.5,33.8,30.37,North,10,0.0,3.0,61,0.00,,,0.01,Wunderground v.1.13,2013-01-07 16:09:00,
2013-01-07 10:12:00,46.6,33.9,30.37,North,10,3.0,4.0,61,0.00,,,0.01,Wunderground v.1.13,2013-01-07 16:12:00,
2013-01-07 10:13:00,46.6,33.4,30.37,North,10,2.0,4.0,60,0.00,,,0.01,Wunderground v.1.13,2013-01-07 16:13:00,
2013-01-07 10:14:00,46.6,33.4,30.37,North,10,0.0,4.0,60,0.00,,,0.01,Wunderground v.1.13,2013-01-07 16:14:00,
2013-01-07 10:17:00,46.9,34.1,30.37,North,10,1.0,2.0,61,0.00,,,0.01,Wunderground v.1.13,2013-01-07 16:17:00,
2013-01-07 10:18:00,46.9,33.7,30.37,North,10,1.0,2.0,60,0.00,,,0.01,Wunderground v.1.13,2013-01-07 16:18:00,
2013-01-07 10:19:00,46.8,34.0,30.37,North,10,0.0,2.0,61,0.00,,,0.01,Wunderground v.1.13,2013-01-07 16:19:00,
2013-01-07 10:22:00,47.0,33.8,30.37,North,10,0.0,1.0,60,0.00,,,0.01,Wunderground v.1.13,2013-01-07 16:22:00,
2013-01-07 10:23:00,47.3,34.9,30.37,North,10,0.0,1.0,62,0.00,,,0.01,Wunderground v.1.13,2013-01-07 16:23:00,
2013-01-07 10:24:00,47.8,34.6,30.37,North,10,0.0,1.0,60,0.00,,,0.01,Wunderground v.1.13,2013-01-07 16:24:00,
2013-01-07 10:27:00,48.2,35.0,30.37,North,10,0.0,2.0,60,0.00,,,0.01,Wunderground v.1.13,2013-01-07 16:27:00,
2013-01-07 10:28:00,48.4,34.3,30.37,North,10,0.0,3.0,58,0.00,,,0.01,Wunderground v.1.13,2013-01-07 16:28:00,
2013-01-07 10:30:00,48.5,35.7,30.37,North,10,0.0,0.0,61,0.00,,,0.01,Wunderground v.1.13,2013-01-07 16:30:00,
2013-01-07 10:32:00,49.0,33.5,30.36,SE,140,0.0,3.0,55,0.00,,,0.01,Wunderground v.1.13,2013-01-07 16:32:00,
2013-01-07 10:34:00,49.0,34.4,30.36,SE,140,0.0,3.0,57,0.00,,,0.01,Wunderground v.1.13,2013-01-07 16:34:00,
2013-01-07 10:35:00,49.0,33.5,30.36,ESE,119,3.0,3.0,55,0.00,,,0.01,Wunderground v.1.13,2013-01-07 16:35:00,
2013-01-07 10:37:00,49.0,33.5,30.36,SE,132,0.0,3.0,55,0.00,,,0.01,Wunderground v.1.13,2013-01-07 16:37:00,
2013-01-07 10:39:00,49.6,35.0,30.36,SE,132,0.0,3.0,57,0.00,,,0.01,Wunderground v.1.13,2013-01-07 16:39:00,
2013-01-07 10:40:00,49.7,33.2,30.36,NNE,18,0.0,1.0,53,0.00,,,0.01,Wunderground v.1.13,2013-01-07 16:40:00,
2013-01-07 10:42:00,50.3,33.3,30.36,North,360,0.0,1.0,52,0.00,,,0.01,Wunderground v.1.13,2013-01-07 16:42:00,
2013-01-07 10:44:00,50.6,34.1,30.36,North,360,0.0,2.0,53,0.00,,,0.01,Wunderground v.1.13,2013-01-07 16:44:00,
2013-01-07 10:46:00,50.6,33.1,30.35,ENE,74,2.0,2.0,51,0.00,,,0.01,Wunderground v.1.13,2013-01-07 16:46:00,
2013-01-07 10:47:00,50.4,33.4,30.35,ENE,63,0.0,2.0,52,0.00,,,0.01,Wunderground v.1.13,2013-01-07 16:47:00,
2013-01-07 10:48:00,50.3,33.3,30.35,SSE,167,0.0,2.0,52,0.00,,,0.01,Wunderground v.1.13,2013-01-07 16:48:00,
2013-01-07 10:49:00,50.4,34.4,30.35,NE,52,2.0,2.0,54,0.00,,,0.01,Wunderground v.1.13,2013-01-07 16:49:00,
2013-01-07 10:51:00,50.9,35.7,30.35,West,261,0.0,3.0,56,0.00,,,0.01,Wunderground v.1.13,2013-01-07 16:51:00,
2013-01-07 10:52:00,50.9,33.4,30.35,West,260,0.0,3.0,51,0.00,,,0.01,Wunderground v.1.13,2013-01-07 16:52:00,
2013-01-07 10:53:00,51.0,34.0,30.35,SSE,149,2.0,3.0,52,0.00,,,0.01,Wunderground v.1.13,2013-01-07 16:53:00,
2013-01-07 10:54:00,51.2,32.2,30.35,ENE,60,0.0,4.0,48,0.00,,,0.01,Wunderground v.1.13,2013-01-07 16:54:00,
2013-01-07 10:56:00,51.5,31.9,30.35,ENE,59,0.0,1.0,47,0.00,,,0.01,Wunderground v.1.13,2013-01-07 16:56:00,
2013-01-07 10:57:00,51.6,33.0,30.35,WNW,286,1.0,2.0,49,0.00,,,0.01,Wunderground v.1.13,2013-01-07 16:57:00,
2013-01-07 10:58:00,51.6,32.0,30.35,South,178,3.0,3.0,47,0.00,,,0.01,Wunderground v.1.13,2013-01-07 16:58:00,
2013-01-07 10:59:00,51.5,30.8,30.35,South,188,3.0,4.0,45,0.00,,,0.01,Wunderground v.1.13,2013-01-07 16:59:00,
2013-01-07 11:01:00,51.5,32.4,30.34,East,100,0.0,2.0,48,0.00,,,0.01,Wunderground v.1.13,2013-01-07 17:01:00,
2013-01-07 11:02:00,51.5,31.9,30.34,ENE,73,1.0,2.0,47,0.00,,,0.01,Wunderground v.1.13,2013-01-07 17:02:00,
2013-01-07 11:04:00,51.6,30.9,30.34,ENE,73,2.0,2.0,45,0.00,,,0.01,Wunderground v.1.13,2013-01-07 17:04:00,
2013-01-07 11:07:00,51.8,31.1,30.34,SE,129,0.0,4.0,45,0.00,,,0.01,Wunderground v.1.13,2013-01-07 17:07:00,
2013-01-07 11:08:00,51.9,31.2,30.34,South,169,1.0,4.0,45,0.00,,,0.01,Wunderground v.1.13,2013-01-07 17:08:00,
2013-01-07 11:09:00,51.9,31.2,30.34,North,351,3.0,4.0,45,0.00,,,0.01,Wunderground v.1.13,2013-01-07 17:09:00,
2013-01-07 11:10:00,51.8,31.7,30.34,ESE,123,1.0,2.0,46,0.00,,,0.01,Wunderground v.1.13,2013-01-07 17:10:00,
2013-01-07 11:12:00,51.3,30.7,30.34,SE,141,0.0,5.0,45,0.00,,,0.01,Wunderground v.1.13,2013-01-07 17:12:00,
2013-01-07 11:14:00,51.3,30.7,30.34,SE,138,5.0,6.0,45,0.00,,,0.01,Wunderground v.1.13,2013-01-07 17:14:00,
2013-01-07 11:15:00,51.0,31.5,30.34,ESE,123,2.0,3.0,47,0.00,,,0.01,Wunderground v.1.13,2013-01-07 17:15:00,
2013-01-07 11:17:00,51.3,32.8,30.34,ESE,123,0.0,3.0,49,0.00,,,0.01,Wunderground v.1.13,2013-01-07 17:17:00,
2013-01-07 11:19:00,51.6,32.5,30.34,NNE,13,1.0,3.0,48,0.00,,,0.01,Wunderground v.1.13,2013-01-07 17:19:00,
2013-01-07 11:20:00,52.2,34.6,30.34,SSE,153,0.0,3.0,51,0.00,,,0.01,Wunderground v.1.13,2013-01-07 17:20:00,
2013-01-07 11:22:00,52.1,29.7,30.34,SE,139,1.0,3.0,42,0.00,,,0.01,Wunderground v.1.13,2013-01-07 17:22:00,
2013-01-07 11:24:00,51.9,30.6,30.34,SE,129,0.0,3.0,44,0.00,,,0.01,Wunderground v.1.13,2013-01-07 17:24:00,
2013-01-07 11:26:00,52.1,31.4,30.34,NNE,27,2.0,4.0,45,0.00,,,0.01,Wunderground v.1.13,2013-01-07 17:26:00,
2013-01-07 11:27:00,51.8,30.6,30.34,NNE,24,1.0,4.0,44,0.00,,,0.01,Wunderground v.1.13,2013-01-07 17:27:00,
2013-01-07 11:29:00,51.9,32.3,30.34,ENE,75,2.0,4.0,47,0.00,,,0.01,Wunderground v.1.13,2013-01-07 17:29:00,
2013-01-07 11:31:00,51.6,31.5,30.33,SSE,160,4.0,4.0,46,0.00,,,0.01,Wunderground v.1.13,2013-01-07 17:31:00,
2013-01-07 11:32:00,51.3,30.1,30.33,ESE,119,2.0,4.0,44,0.00,,,0.01,Wunderground v.1.13,2013-01-07 17:32:00,
2013-01-07 11:34:00,51.0,29.8,30.33,South,184,0.0,4.0,44,0.00,,,0.01,Wunderground v.1.13,2013-01-07 17:34:00,
2013-01-07 11:36:00,51.2,32.2,30.33,SSE,154,0.0,4.0,48,0.00,,,0.01,Wunderground v.1.13,2013-01-07 17:36:00,
2013-01-07 11:37:00,51.3,31.2,30.33,ENE,76,3.0,4.0,46,0.00,,,0.01,Wunderground v.1.13,2013-01-07 17:37:00,
2013-01-07 11:39:00,51.8,32.7,30.33,East,88,0.0,4.0,48,0.00,,,0.01,Wunderground v.1.13,2013-01-07 17:39:00,
2013-01-07 11:40:00,51.9,32.3,30.33,East,100,1.0,2.0,47,0.00,,,0.01,Wunderground v.1.13,2013-01-07 17:40:00,
2013-01-07 11:41:00,52.4,32.2,30.33,SW,224,0.0,2.0,46,0.00,,,0.01,Wunderground v.1.13,2013-01-07 17:41:00,
2013-01-07 11:43:00,52.5,32.3,30.33,ESE,110,0.0,2.0,46,0.00,,,0.01,Wunderground v.1.13,2013-01-07 17:43:00,
2013-01-07 11:44:00,52.5,30.6,30.33,SSE,151,2.0,3.0,43,0.00,,,0.01,Wunderground v.1.13,2013-01-07 17:44:00,
2013-01-07 11:45:00,52.5,30.6,30.33,SE,145,0.0,1.0,43,0.00,,,0.01,Wunderground v.1.13,2013-01-07 17:45:00,
2013-01-07 11:47:00,52.2,31.5,30.32,ESE,107,1.0,3.0,45,0.00,,,0.01,Wunderground v.1.13,2013-01-07 17:47:00,
2013-01-07 11:48:00,52.2,31.5,30.32,ESE,107,0.0,3.0,45,0.00,,,0.01,Wunderground v.1.13,2013-01-07 17:48:00,
2013-01-07 11:49:00,52.4,33.3,30.32,ESE,107,0.0,3.0,48,0.00,,,0.01,Wunderground v.1.13,2013-01-07 17:49:00,
2013-01-07 11:50:00,52.4,31.1,30.32,ESE,107,0.0,1.0,44,0.00,,,0.01,Wunderground v.1.13,2013-01-07 17:50:00,
2013-01-07 11:52:00,52.8,33.6,30.32,ESE,107,0.0,1.0,48,0.00,,,0.01,Wunderground v.1.13,2013-01-07 17:52:00,
2013-01-07 11:53:00,53.0,33.8,30.32,SSE,159,2.0,2.0,48,0.00,,,0.01,Wunderground v.1.13,2013-01-07 17:53:00,
2013-01-07 11:54:00,52.8,31.5,30.32,SSE,159,0.0,2.0,44,0.00,,,0.01,Wunderground v.1.13,2013-01-07 17:54:00,
2013-01-07 11:55:00,53.0,33.3,30.32,SSE,159,1.0,1.0,47,0.00,,,0.01,Wunderground v.1.13,2013-01-07 17:55:00,
2013-01-07 11:57:00,53.0,31.6,30.32,ENE,60,0.0,3.0,44,0.00,,,0.01,Wunderground v.1.13,2013-01-07 17:57:00,
2013-01-07 11:58:00,53.0,33.8,30.32,ENE,58,0.0,3.0,48,0.00,,,0.01,Wunderground v.1.13,2013-01-07 17:58:00,
2013-01-07 11:59:00,53.1,32.3,30.32,ENE,58,0.0,3.0,45,0.00,,,0.01,Wunderground v.1.13,2013-01-07 17:59:00,
2013-01-07 12:01:00,53.1,32.3,30.31,ESE,115,1.0,1.0,45,0.00,,,0.01,Wunderground v.1.13,2013-01-07 18:01:00,
2013-01-07 12:02:00,52.8,30.9,30.31,ESE,115,0.0,2.0,43,0.00,,,0.01,Wunderground v.1.13,2013-01-07 18:02:00,
2013-01-07 12:03:00,52.7,31.9,30.31,ESE,115,1.0,2.0,45,0.00,,,0.01,Wunderground v.1.13,2013-01-07 18:03:00,
2013-01-07 12:04:00,52.7,33.0,30.31,NE,48,0.0,2.0,47,0.00,,,0.01,Wunderground v.1.13,2013-01-07 18:04:00,
2013-01-07 12:06:00,52.8,31.5,30.31,NE,48,0.0,0.0,44,0.00,,,0.01,Wunderground v.1.13,2013-01-07 18:06:00,
2013-01-07 12:07:00,52.7,31.4,30.31,NE,48,0.0,1.0,44,0.00,,,0.01,Wunderground v.1.13,2013-01-07 18:07:00,
2013-01-07 12:09:00,53.0,33.3,30.31,NE,48,1.0,2.0,47,0.00,,,0.01,Wunderground v.1.13,2013-01-07 18:09:00,
2013-01-07 12:10:00,53.3,32.5,30.31,NE,47,0.0,0.0,45,0.00,,,0.01,Wunderground v.1.13,2013-01-07 18:10:00,
2013-01-07 12:11:00,53.4,32.6,30.31,North,360,0.0,4.0,45,0.00,,,0.01,Wunderground v.1.13,2013-01-07 18:11:00,
2013-01-07 12:13:00,53.7,32.3,30.31,ESE,109,2.0,4.0,44,0.00,,,0.01,Wunderground v.1.13,2013-01-07 18:13:00,
2013-01-07 12:14:00,53.6,31.0,30.31,ESE,109,0.0,4.0,42,0.00,,,0.01,Wunderground v.1.13,2013-01-07 18:14:00,
2013-01-07 12:15:00,53.6,32.2,30.31,ENE,63,0.0,2.0,44,0.00,,,0.01,Wunderground v.1.13,2013-01-07 18:15:00,
2013-01-07 12:16:00,53.6,32.8,30.31,ENE,63,0.0,2.0,45,0.00,,,0.01,Wunderground v.1.13,2013-01-07 18:16:00,
2013-01-07 12:18:00,53.7,31.7,30.31,SE,142,1.0,2.0,43,0.00,,,0.01,Wunderground v.1.13,2013-01-07 18:18:00,
2013-01-07 12:19:00,53.7,31.1,30.31,South,171,0.0,5.0,42,0.00,,,0.01,Wunderground v.1.13,2013-01-07 18:19:00,
2013-01-07 12:21:00,53.9,31.9,30.31,SE,137,0.0,5.0,43,0.00,,,0.01,Wunderground v.1.13,2013-01-07 18:21:00,
2013-01-07 12:23:00,53.7,32.3,30.31,SE,128,0.0,6.0,44,0.00,,,0.01,Wunderground v.1.13,2013-01-07 18:23:00,
2013-01-07 12:24:00,53.9,31.9,30.31,SE,128,0.0,6.0,43,0.00,,,0.01,Wunderground v.1.13,2013-01-07 18:24:00,
2013-01-07 12:26:00,54.1,32.1,30.31,SE,128,1.0,1.0,43,0.00,,,0.01,Wunderground v.1.13,2013-01-07 18:26:00,
2013-01-07 12:27:00,54.3,32.3,30.31,SE,128,0.0,1.0,43,0.00,,,0.01,Wunderground v.1.13,2013-01-07 18:27:00,
2013-01-07 12:29:00,54.4,32.3,30.31,NNE,15,0.0,3.0,43,0.00,,,0.01,Wunderground v.1.13,2013-01-07 18:29:00,
2013-01-07 12:31:00,54.4,31.8,30.30,NE,49,0.0,2.0,42,0.00,,,0.01,Wunderground v.1.13,2013-01-07 18:31:00,
2013-01-07 12:32:00,54.4,31.8,30.30,NE,49,0.0,2.0,42,0.00,,,0.01,Wunderground v.1.13,2013-01-07 18:32:00,
2013-01-07 12:34:00,54.3,31.1,30.30,North,360,0.0,2.0,41,0.00,,,0.01,Wunderground v.1.13,2013-01-07 18:34:00,
2013-01-07 12:35:00,54.3,32.3,30.30,North,360,0.0,1.0,43,0.00,,,0.01,Wunderground v.1.13,2013-01-07 18:35:00,
2013-01-07 12:36:00,54.3,32.3,30.30,North,360,0.0,1.0,43,0.00,,,0.01,Wunderground v.1.13,2013-01-07 18:36:00,
2013-01-07 12:37:00,54.3,31.7,30.30,North,360,0.0,1.0,42,0.00,,,0.01,Wunderground v.1.13,2013-01-07 18:37:00,
2013-01-07 12:40:00,54.3,33.4,30.30,ENE,66,2.0,2.0,45,0.00,,,0.01,Wunderground v.1.13,2013-01-07 18:40:00,
2013-01-07 12:41:00,54.3,31.7,30.30,ENE,57,1.0,2.0,42,0.00,,,0.01,Wunderground v.1.13,2013-01-07 18:41:00,
2013-01-07 12:42:00,54.1,31.5,30.30,ENE,57,0.0,2.0,42,0.00,,,0.01,Wunderground v.1.13,2013-01-07 18:42:00,
2013-01-07 12:45:00,53.7,31.7,30.30,ENE,58,2.0,2.0,43,0.00,,,0.01,Wunderground v.1.13,2013-01-07 18:45:00,
2013-01-07 12:46:00,54.1,32.6,30.29,East,88,0.0,2.0,44,0.00,,,0.01,Wunderground v.1.13,2013-01-07 18:46:00,
2013-01-07 12:47:00,54.4,32.9,30.29,East,82,0.0,2.0,44,0.00,,,0.01,Wunderground v.1.13,2013-01-07 18:47:00,
2013-01-07 12:50:00,54.3,31.7,30.29,ENE,57,2.0,2.0,42,0.00,,,0.01,Wunderground v.1.13,2013-01-07 18:50:00,
2013-01-07 12:51:00,54.3,33.4,30.29,South,171,1.0,3.0,45,0.00,,,0.01,Wunderground v.1.13,2013-01-07 18:51:00,
2013-01-07 12:52:00,54.3,31.7,30.29,SSW,198,3.0,3.0,42,0.00,,,0.01,Wunderground v.1.13,2013-01-07 18:52:00,
2013-01-07 12:55:00,54.4,31.2,30.29,SE,134,1.0,6.0,41,0.00,,,0.01,Wunderground v.1.13,2013-01-07 18:55:00,
2013-01-07 12:57:00,54.1,31.5,30.29,SE,144,1.0,6.0,42,0.00,,,0.01,Wunderground v.1.13,2013-01-07 18:57:00,
2013-01-07 13:01:00,54.0,31.4,30.29,SSE,156,1.0,2.0,42,0.00,,,0.01,Wunderground v.1.13,2013-01-07 19:01:00,
2013-01-07 13:02:00,53.9,31.3,30.29,SSE,156,0.0,2.0,42,0.00,,,0.01,Wunderground v.1.13,2013-01-07 19:02:00,
2013-01-07 13:06:00,54.4,31.8,30.29,SSE,159,1.0,3.0,42,0.00,,,0.01,Wunderground v.1.13,2013-01-07 19:06:00,
2013-01-07 13:07:00,54.7,32.0,30.29,NE,50,0.0,3.0,42,0.00,,,0.01,Wunderground v.1.13,2013-01-07 19:07:00,
2013-01-07 13:08:00,54.9,32.2,30.29,NE,51,1.0,3.0,42,0.00,,,0.01,Wunderground v.1.13,2013-01-07 19:08:00,
2013-01-07 13:11:00,55.0,32.3,30.29,ENE,74,1.0,2.0,42,0.00,,,0.01,Wunderground v.1.13,2013-01-07 19:11:00,
2013-01-07 13:12:00,55.0,31.1,30.29,SE,144,3.0,4.0,40,0.00,,,0.01,Wunderground v.1.13,2013-01-07 19:12:00,
2013-01-07 13:13:00,55.0,31.1,30.29,SE,144,0.0,4.0,40,0.00,,,0.01,Wunderground v.1.13,2013-01-07 19:13:00,
2013-01-07 13:16:00,55.0,31.7,30.29,SE,144,0.0,1.0,41,0.00,,,0.01,Wunderground v.1.13,2013-01-07 19:16:00,
2013-01-07 13:17:00,55.0,31.7,30.29,NNE,29,1.0,3.0,41,0.00,,,0.01,Wunderground v.1.13,2013-01-07 19:17:00,
2013-01-07 13:18:00,55.0,31.7,30.29,ESE,115,3.0,3.0,41,0.00,,,0.01,Wunderground v.1.13,2013-01-07 19:18:00,
2013-01-07 13:21:00,55.0,32.3,30.29,SE,134,0.0,3.0,42,0.00,,,0.01,Wunderground v.1.13,2013-01-07 19:21:00,
2013-01-07 13:22:00,55.0,31.7,30.29,SE,134,0.0,3.0,41,0.00,,,0.01,Wunderground v.1.13,2013-01-07 19:22:00,
2013-01-07 13:23:00,55.0,32.3,30.29,SE,134,1.0,3.0,42,0.00,,,0.01,Wunderground v.1.13,2013-01-07 19:23:00,
2013-01-07 13:27:00,54.7,32.6,30.29,South,190,1.0,4.0,43,0.00,,,0.01,Wunderground v.1.13,2013-01-07 19:27:00,
2013-01-07 13:28:00,54.7,32.6,30.29,SSE,167,0.0,4.0,43,0.00,,,0.01,Wunderground v.1.13,2013-01-07 19:28:00,
2013-01-07 13:32:00,54.9,32.8,30.29,NE,46,0.0,1.0,43,0.00,,,0.01,Wunderground v.1.13,2013-01-07 19:32:00,
2013-01-07 13:34:00,54.9,32.8,30.29,NE,56,1.0,2.0,43,0.00,,,0.01,Wunderground v.1.13,2013-01-07 19:34:00,
2013-01-07 13:37:00,55.0,33.5,30.29,ESE,118,0.0,1.0,44,0.00,,,0.01,Wunderground v.1.13,2013-01-07 19:37:00,
2013-01-07 13:38:00,55.0,33.5,30.29,NE,38,1.0,1.0,44,0.00,,,0.01,Wunderground v.1.13,2013-01-07 19:38:00,
2013-01-07 13:39:00,55.0,33.5,30.29,NE,37,0.0,2.0,44,0.00,,,0.01,Wunderground v.1.13,2013-01-07 19:39:00,
2013-01-07 13:42:00,55.2,32.5,30.29,East,91,0.0,1.0,42,0.00,,,0.01,Wunderground v.1.13,2013-01-07 19:42:00,
2013-01-07 13:43:00,55.2,32.5,30.29,SSE,168,1.0,3.0,42,0.00,,,0.01,Wunderground v.1.13,2013-01-07 19:43:00,
2013-01-07 13:44:00,55.2,31.9,30.29,SSE,158,4.0,4.0,41,0.00,,,0.01,Wunderground v.1.13,2013-01-07 19:44:00,
2013-01-07 13:47:00,54.9,32.8,30.28,SE,141,0.0,1.0,43,0.00,,,0.01,Wunderground v.1.13,2013-01-07 19:47:00,
2013-01-07 13:48:00,55.0,32.9,30.28,SE,141,0.0,1.0,43,0.00,,,0.01,Wunderground v.1.13,2013-01-07 19:48:00,
2013-01-07 13:49:00,55.3,33.2,30.28,SE,140,1.0,2.0,43,0.00,,,0.01,Wunderground v.1.13,2013-01-07 19:49:00,
2013-01-07 13:52:00,55.2,31.9,30.28,ENE,74,1.0,4.0,41,0.00,,,0.01,Wunderground v.1.13,2013-01-07 19:52:00,
2013-01-07 13:53:00,55.0,31.7,30.28,ENE,74,1.0,4.0,41,0.00,,,0.01,Wunderground v.1.13,2013-01-07 19:53:00,
2013-01-07 13:54:00,55.2,32.5,30.28,ENE,74,0.0,4.0,42,0.00,,,0.01,Wunderground v.1.13,2013-01-07 19:54:00,
2013-01-07 13:57:00,55.3,32.0,30.28,SSE,155,0.0,3.0,41,0.00,,,0.01,Wunderground v.1.13,2013-01-07 19:57:00,
2013-01-07 13:58:00,55.3,32.0,30.28,SSE,155,0.0,3.0,41,0.00,,,0.01,Wunderground v.1.13,2013-01-07 19:58:00,
2013-01-07 13:59:00,55.5,32.8,30.28,SSE,155,0.0,3.0,42,0.00,,,0.01,Wunderground v.1.13,2013-01-07 19:59:00,
2013-01-07 14:03:00,55.6,32.8,30.28,North,360,0.0,3.0,42,0.00,,,0.01,Wunderground v.1.13,2013-01-07 20:03:00,
2013-01-07 14:04:00,55.8,33.0,30.28,ENE,63,0.0,3.0,42,0.00,,,0.01,Wunderground v.1.13,2013-01-07 20:04:00,
2013-01-07 14:08:00,56.1,33.3,30.28,ENE,64,0.0,1.0,42,0.00,,,0.01,Wunderground v.1.13,2013-01-07 20:08:00,
2013-01-07 14:09:00,56.2,32.2,30.28,ENE,64,0.0,1.0,40,0.00,,,0.01,Wunderground v.1.13,2013-01-07 20:09:00,
2013-01-07 14:13:00,56.7,32.6,30.28,SE,124,0.0,3.0,40,0.00,,,0.01,Wunderground v.1.13,2013-01-07 20:13:00,
2013-01-07 14:14:00,56.7,32.0,30.28,SE,124,0.0,3.0,39,0.00,,,0.01,Wunderground v.1.13,2013-01-07 20:14:00,
2013-01-07 14:15:00,56.5,31.8,30.28,SE,124,0.0,0.0,39,0.00,,,0.01,Wunderground v.1.13,2013-01-07 20:15:00,
2013-01-07 14:19:00,56.1,32.7,30.28,SE,124,0.0,3.0,41,0.00,,,0.01,Wunderground v.1.13,2013-01-07 20:19:00,
2013-01-07 14:20:00,56.1,32.1,30.28,SE,124,0.0,1.0,40,0.00,,,0.01,Wunderground v.1.13,2013-01-07 20:20:00,
2013-01-07 14:24:00,56.4,33.6,30.28,SE,124,0.0,1.0,42,0.00,,,0.01,Wunderground v.1.13,2013-01-07 20:24:00,
2013-01-07 14:25:00,56.5,32.4,30.28,SSE,157,4.0,4.0,40,0.00,,,0.01,Wunderground v.1.13,2013-01-07 20:25:00,
2013-01-07 14:29:00,56.7,32.0,30.28,SSE,158,0.0,4.0,39,0.00,,,0.01,Wunderground v.1.13,2013-01-07 20:29:00,
2013-01-07 14:30:00,56.7,32.0,30.28,SSE,158,0.0,1.0,39,0.00,,,0.01,Wunderground v.1.13,2013-01-07 20:30:00,
2013-01-07 14:31:00,56.7,32.0,30.27,SSE,158,0.0,1.0,39,0.00,,,0.01,Wunderground v.1.13,2013-01-07 20:31:00,
2013-01-07 14:34:00,56.4,31.7,30.27,SSE,162,1.0,3.0,39,0.00,,,0.01,Wunderground v.1.13,2013-01-07 20:34:00,
2013-01-07 14:36:00,56.2,31.5,30.27,SSE,157,0.0,3.0,39,0.00,,,0.01,Wunderground v.1.13,2013-01-07 20:36:00,
2013-01-07 14:39:00,55.9,31.3,30.27,SE,125,2.0,4.0,39,0.00,,,0.01,Wunderground v.1.13,2013-01-07 20:39:00,
2013-01-07 14:41:00,55.9,31.9,30.27,SSE,159,3.0,3.0,40,0.00,,,0.01,Wunderground v.1.13,2013-01-07 20:41:00,
2013-01-07 14:45:00,55.8,31.8,30.27,SSE,159,3.0,4.0,40,0.00,,,0.01,Wunderground v.1.13,2013-01-07 20:45:00,
2013-01-07 14:46:00,55.8,31.8,30.27,SSE,164,3.0,4.0,40,0.00,,,0.01,Wunderground v.1.13,2013-01-07 20:46:00,
2013-01-07 14:47:00,55.8,31.8,30.27,SSE,163,2.0,4.0,40,0.00,,,0.01,Wunderground v.1.13,2013-01-07 20:47:00,
2013-01-07 14:50:00,55.8,32.4,30.27,SE,144,0.0,3.0,41,0.00,,,0.01,Wunderground v.1.13,2013-01-07 20:50:00,
2013-01-07 14:51:00,55.9,32.5,30.27,SE,144,0.0,3.0,41,0.00,,,0.01,Wunderground v.1.13,2013-01-07 20:51:00,
2013-01-07 14:52:00,55.9,31.9,30.27,SE,144,0.0,3.0,40,0.00,,,0.01,Wunderground v.1.13,2013-01-07 20:52:00,
2013-01-07 14:55:00,56.1,32.1,30.27,SE,144,1.0,2.0,40,0.00,,,0.01,Wunderground v.1.13,2013-01-07 20:55:00,
2013-01-07 14:56:00,56.2,32.2,30.27,SE,144,0.0,2.0,40,0.00,,,0.01,Wunderground v.1.13,2013-01-07 20:56:00,
2013-01-07 14:58:00,56.4,31.7,30.27,SE,142,0.0,2.0,39,0.00,,,0.01,Wunderground v.1.13,2013-01-07 20:58:00,
2013-01-07 15:00:00,56.4,33.0,30.27,SE,142,0.0,0.0,41,0.00,,,0.01,Wunderground v.1.13,2013-01-07 21:00:00,
2013-01-07 15:01:00,56.4,32.4,30.27,SE,142,0.0,2.0,40,0.00,,,0.01,Wunderground v.1.13,2013-01-07 21:01:00,
2013-01-07 15:03:00,56.4,32.4,30.27,SE,142,0.0,2.0,40,0.00,,,0.01,Wunderground v.1.13,2013-01-07 21:03:00,
2013-01-07 15:05:00,56.4,32.4,30.27,SE,142,0.0,1.0,40,0.00,,,0.01,Wunderground v.1.13,2013-01-07 21:05:00,
2013-01-07 15:06:00,56.4,31.7,30.27,SE,142,0.0,1.0,39,0.00,,,0.01,Wunderground v.1.13,2013-01-07 21:06:00,
2013-01-07 15:07:00,56.4,32.4,30.27,SE,142,0.0,1.0,40,0.00,,,0.01,Wunderground v.1.13,2013-01-07 21:07:00,
2013-01-07 15:08:00,56.4,33.0,30.27,SE,142,0.0,1.0,41,0.00,,,0.01,Wunderground v.1.13,2013-01-07 21:08:00,
2013-01-07 15:11:00,56.4,33.0,30.27,SE,142,0.0,1.0,41,0.00,,,0.01,Wunderground v.1.13,2013-01-07 21:11:00,
2013-01-07 15:12:00,56.4,32.4,30.27,SE,142,0.0,1.0,40,0.00,,,0.01,Wunderground v.1.13,2013-01-07 21:12:00,
2013-01-07 15:13:00,56.4,33.6,30.27,SE,142,0.0,1.0,42,0.00,,,0.01,Wunderground v.1.13,2013-01-07 21:13:00,
2013-01-07 15:16:00,56.2,32.2,30.28,SE,142,0.0,2.0,40,0.00,,,0.01,Wunderground v.1.13,2013-01-07 21:16:00,
2013-01-07 15:17:00,56.2,32.2,30.28,SE,142,0.0,2.0,40,0.00,,,0.01,Wunderground v.1.13,2013-01-07 21:17:00,
2013-01-07 15:19:00,56.2,33.4,30.28,SE,142,0.0,2.0,42,0.00,,,0.01,Wunderground v.1.13,2013-01-07 21:19:00,
2013-01-07 15:22:00,56.2,32.2,30.28,SE,138,1.0,2.0,40,0.00,,,0.01,Wunderground v.1.13,2013-01-07 21:22:00,
2013-01-07 15:24:00,56.1,32.1,30.28,South,170,2.0,3.0,40,0.00,,,0.01,Wunderground v.1.13,2013-01-07 21:24:00,
2013-01-07 15:27:00,56.1,32.7,30.28,South,170,0.0,2.0,41,0.00,,,0.01,Wunderground v.1.13,2013-01-07 21:27:00,
2013-01-07 15:29:00,56.1,32.7,30.28,South,170,0.0,2.0,41,0.00,,,0.01,Wunderground v.1.13,2013-01-07 21:29:00,
2013-01-07 15:32:00,56.1,32.1,30.27,SSE,156,0.0,1.0,40,0.00,,,0.01,Wunderground v.1.13,2013-01-07 21:32:00,
2013-01-07 15:34:00,56.1,32.7,30.27,NE,40,2.0,2.0,41,0.00,,,0.01,Wunderground v.1.13,2013-01-07 21:34:00,
2013-01-07 15:37:00,56.1,32.7,30.27,NE,40,0.0,0.0,41,0.00,,,0.01,Wunderground v.1.13,2013-01-07 21:37:00,
2013-01-07 15:39:00,56.1,32.7,30.27,NE,40,0.0,0.0,41,0.00,,,0.01,Wunderground v.1.13,2013-01-07 21:39:00,
2013-01-07 15:42:00,56.1,32.7,30.27,ESE,105,0.0,2.0,41,0.00,,,0.01,Wunderground v.1.13,2013-01-07 21:42:00,
2013-01-07 15:43:00,55.9,31.9,30.27,SE,133,1.0,2.0,40,0.00,,,0.01,Wunderground v.1.13,2013-01-07 21:43:00,
2013-01-07 15:45:00,55.9,31.9,30.27,East,94,0.0,0.0,40,0.00,,,0.01,Wunderground v.1.13,2013-01-07 21:45:00,
2013-01-07 15:47:00,55.9,31.3,30.28,SE,134,0.0,4.0,39,0.00,,,0.01,Wunderground v.1.13,2013-01-07 21:47:00,
2013-01-07 15:48:00,55.9,31.9,30.28,SE,134,0.0,4.0,40,0.00,,,0.01,Wunderground v.1.13,2013-01-07 21:48:00,
2013-01-07 15:50:00,55.9,32.5,30.28,SE,134,0.0,0.0,41,0.00,,,0.01,Wunderground v.1.13,2013-01-07 21:50:00,
2013-01-07 15:53:00,55.9,33.1,30.28,SE,134,0.0,1.0,42,0.00,,,0.01,Wunderground v.1.13,2013-01-07 21:53:00,
2013-01-07 15:55:00,55.9,33.1,30.28,SE,134,0.0,0.0,42,0.00,,,0.01,Wunderground v.1.13,2013-01-07 21:55:00,
2013-01-07 15:58:00,55.9,33.1,30.28,SE,134,0.0,0.0,42,0.00,,,0.01,Wunderground v.1.13,2013-01-07 21:58:00,
2013-01-07 16:00:00,55.8,33.0,30.28,SE,134,0.0,0.0,42,0.00,,,0.01,Wunderground v.1.13,2013-01-07 22:00:00,
2013-01-07 16:03:00,55.6,32.8,30.28,SE,134,0.0,2.0,42,0.00,,,0.01,Wunderground v.1.13,2013-01-07 22:03:00,
2013-01-07 16:05:00,55.6,32.8,30.28,SE,134,0.0,0.0,42,0.00,,,0.01,Wunderground v.1.13,2013-01-07 22:05:00,
2013-01-07 16:08:00,55.5,32.8,30.28,SE,134,1.0,1.0,42,0.00,,,0.01,Wunderground v.1.13,2013-01-07 22:08:00,
2013-01-07 16:09:00,55.5,32.8,30.28,SE,134,0.0,1.0,42,0.00,,,0.01,Wunderground v.1.13,2013-01-07 22:09:00,
2013-01-07 16:10:00,55.3,32.0,30.28,SE,134,0.0,2.0,41,0.00,,,0.01,Wunderground v.1.13,2013-01-07 22:10:00,
2013-01-07 16:13:00,55.3,32.6,30.28,SE,134,0.0,2.0,42,0.00,,,0.01,Wunderground v.1.13,2013-01-07 22:13:00,
2013-01-07 16:14:00,55.3,32.6,30.28,SE,134,0.0,2.0,42,0.00,,,0.01,Wunderground v.1.13,2013-01-07 22:14:00,
2013-01-07 16:15:00,55.3,32.6,30.28,SE,134,0.0,0.0,42,0.00,,,0.01,Wunderground v.1.13,2013-01-07 22:15:00,
2013-01-07 16:18:00,55.2,33.1,30.28,SE,134,0.0,1.0,43,0.00,,,0.01,Wunderground v.1.13,2013-01-07 22:18:00,
2013-01-07 16:19:00,55.2,33.6,30.28,SE,134,0.0,1.0,44,0.00,,,0.01,Wunderground v.1.13,2013-01-07 22:19:00,
2013-01-07 16:21:00,55.0,32.9,30.28,SE,134,0.0,0.0,43,0.00,,,0.01,Wunderground v.1.13,2013-01-07 22:21:00,
2013-01-07 16:23:00,55.0,34.0,30.28,SE,134,0.0,0.0,45,0.00,,,0.01,Wunderground v.1.13,2013-01-07 22:23:00,
2013-01-07 16:24:00,54.9,34.5,30.28,SE,134,0.0,0.0,46,0.00,,,0.01,Wunderground v.1.13,2013-01-07 22:24:00,
2013-01-07 16:26:00,54.7,33.8,30.28,SE,134,0.0,0.0,45,0.00,,,0.01,Wunderground v.1.13,2013-01-07 22:26:00,
2013-01-07 16:28:00,54.6,34.8,30.28,SE,134,0.0,0.0,47,0.00,,,0.01,Wunderground v.1.13,2013-01-07 22:28:00,
2013-01-07 16:29:00,54.6,34.8,30.28,SE,134,0.0,0.0,47,0.00,,,0.01,Wunderground v.1.13,2013-01-07 22:29:00,
2013-01-07 16:30:00,54.4,35.1,30.28,SE,134,0.0,0.0,48,0.00,,,0.01,Wunderground v.1.13,2013-01-07 22:30:00,
2013-01-07 16:31:00,54.4,35.1,30.28,SE,134,0.0,0.0,48,0.00,,,0.01,Wunderground v.1.13,2013-01-07 22:31:00,
2013-01-07 16:34:00,54.1,35.9,30.28,SE,134,0.0,0.0,50,0.00,,,0.01,Wunderground v.1.13,2013-01-07 22:34:00,
2013-01-07 16:36:00,53.9,35.2,30.28,SE,134,0.0,0.0,49,0.00,,,0.01,Wunderground v.1.13,2013-01-07 22:36:00,
2013-01-07 16:39:00,53.4,34.7,30.28,SE,134,0.0,0.0,49,0.00,,,0.01,Wunderground v.1.13,2013-01-07 22:39:00,
2013-01-07 16:40:00,53.3,35.6,30.28,SE,134,0.0,0.0,51,0.00,,,0.01,Wunderground v.1.13,2013-01-07 22:40:00,
2013-01-07 16:41:00,53.1,35.4,30.28,SE,134,0.0,0.0,51,0.00,,,0.01,Wunderground v.1.13,2013-01-07 22:41:00,
2013-01-07 16:44:00,52.8,36.6,30.28,SE,134,0.0,0.0,54,0.00,,,0.01,Wunderground v.1.13,2013-01-07 22:44:00,
2013-01-07 16:46:00,52.5,36.3,30.28,SE,134,0.0,0.0,54,0.00,,,0.01,Wunderground v.1.13,2013-01-07 22:46:00,
2013-01-07 16:49:00,52.1,36.4,30.28,SE,134,0.0,0.0,55,0.00,,,0.01,Wunderground v.1.13,2013-01-07 22:49:00,
2013-01-07 16:51:00,51.9,36.2,30.28,SE,134,0.0,0.0,55,0.00,,,0.01,Wunderground v.1.13,2013-01-07 22:51:00,
2013-01-07 16:54:00,51.6,36.4,30.28,SE,134,0.0,0.0,56,0.00,,,0.01,Wunderground v.1.13,2013-01-07 22:54:00,
2013-01-07 16:56:00,51.5,35.9,30.28,SE,134,0.0,0.0,55,0.00,,,0.01,Wunderground v.1.13,2013-01-07 22:56:00,
2013-01-07 16:57:00,51.3,35.7,30.28,SE,134,0.0,0.0,55,0.00,,,0.01,Wunderground v.1.13,2013-01-07 22:57:00,
2013-01-07 16:59:00,51.0,35.8,30.28,SE,134,0.0,0.0,56,0.00,,,0.01,Wunderground v.1.13,2013-01-07 22:59:00,
2013-01-07 17:01:00,50.9,35.7,30.27,SE,134,0.0,0.0,56,0.00,,,0.01,Wunderground v.1.13,2013-01-07 23:01:00,
2013-01-07 17:02:00,50.7,36.0,30.27,SE,134,0.0,0.0,57,0.00,,,0.01,Wunderground v.1.13,2013-01-07 23:02:00,
2013-01-07 17:04:00,50.6,35.9,30.27,SE,134,0.0,0.0,57,0.00,,,0.01,Wunderground v.1.13,2013-01-07 23:04:00,
2013-01-07 17:06:00,50.3,36.1,30.27,SE,134,0.0,0.0,58,0.00,,,0.01,Wunderground v.1.13,2013-01-07 23:06:00,
2013-01-07 17:07:00,50.2,36.4,30.27,SE,134,0.0,0.0,59,0.00,,,0.01,Wunderground v.1.13,2013-01-07 23:07:00,
2013-01-07 17:09:00,49.9,36.6,30.27,SE,134,0.0,0.0,60,0.00,,,0.01,Wunderground v.1.13,2013-01-07 23:09:00,
2013-01-07 17:11:00,49.7,36.4,30.27,SE,134,0.0,0.0,60,0.00,,,0.01,Wunderground v.1.13,2013-01-07 23:11:00,
2013-01-07 17:12:00,49.7,36.8,30.27,SE,134,0.0,0.0,61,0.00,,,0.01,Wunderground v.1.13,2013-01-07 23:12:00,
2013-01-07 17:14:00,49.4,36.5,30.27,SE,134,0.0,0.0,61,0.00,,,0.01,Wunderground v.1.13,2013-01-07 23:14:00,
2013-01-07 17:15:00,49.3,36.8,30.27,SE,134,0.0,0.0,62,0.00,,,0.01,Wunderground v.1.13,2013-01-07 23:15:00,
2013-01-07 17:16:00,49.1,36.6,30.27,SE,134,0.0,0.0,62,0.00,,,0.01,Wunderground v.1.13,2013-01-07 23:16:00,
2013-01-07 17:17:00,49.0,36.5,30.27,SE,134,0.0,0.0,62,0.00,,,0.01,Wunderground v.1.13,2013-01-07 23:17:00,
2013-01-07 17:20:00,48.5,36.5,30.27,SE,134,0.0,0.0,63,0.00,,,0.01,Wunderground v.1.13,2013-01-07 23:20:00,
2013-01-07 17:21:00,48.4,36.4,30.27,SE,134,0.0,0.0,63,0.00,,,0.01,Wunderground v.1.13,2013-01-07 23:21:00,
2013-01-07 17:22:00,48.2,36.6,30.27,SE,134,0.0,0.0,64,0.00,,,0.01,Wunderground v.1.13,2013-01-07 23:22:00,
2013-01-07 17:25:00,47.9,36.7,30.27,SE,134,0.0,0.0,65,0.00,,,0.01,Wunderground v.1.13,2013-01-07 23:25:00,
2013-01-07 17:26:00,47.8,36.6,30.27,SE,134,0.0,0.0,65,0.00,,,0.01,Wunderground v.1.13,2013-01-07 23:26:00,
2013-01-07 17:27:00,47.8,36.6,30.27,SE,134,0.0,0.0,65,0.00,,,0.01,Wunderground v.1.13,2013-01-07 23:27:00,
2013-01-07 17:31:00,47.3,36.1,30.27,SE,134,0.0,0.0,65,0.00,,,0.01,Wunderground v.1.13,2013-01-07 23:31:00,
2013-01-07 17:32:00,47.2,36.4,30.27,SE,134,0.0,0.0,66,0.00,,,0.01,Wunderground v.1.13,2013-01-07 23:32:00,
2013-01-07 17:33:00,47.0,36.2,30.27,SE,134,0.0,0.0,66,0.00,,,0.01,Wunderground v.1.13,2013-01-07 23:33:00,
2013-01-07 17:36:00,46.8,36.0,30.27,SE,134,0.0,0.0,66,0.00,,,0.01,Wunderground v.1.13,2013-01-07 23:36:00,
2013-01-07 17:37:00,46.8,36.0,30.27,SE,134,0.0,0.0,66,0.00,,,0.01,Wunderground v.1.13,2013-01-07 23:37:00,
2013-01-07 17:39:00,46.6,36.2,30.27,SE,134,0.0,0.0,67,0.00,,,0.01,Wunderground v.1.13,2013-01-07 23:39:00,
2013-01-07 17:41:00,46.3,36.3,30.27,SE,134,0.0,0.0,68,0.00,,,0.01,Wunderground v.1.13,2013-01-07 23:41:00,
2013-01-07 17:42:00,46.3,36.3,30.27,SE,134,0.0,0.0,68,0.00,,,0.01,Wunderground v.1.13,2013-01-07 23:42:00,
2013-01-07 17:44:00,46.0,36.0,30.27,SE,134,0.0,0.0,68,0.00,,,0.01,Wunderground v.1.13,2013-01-07 23:44:00,
2013-01-07 17:46:00,45.7,36.1,30.27,SE,134,0.0,0.0,69,0.00,,,0.01,Wunderground v.1.13,2013-01-07 23:46:00,
2013-01-07 17:47:00,45.7,36.1,30.27,SE,134,0.0,0.0,69,0.00,,,0.01,Wunderground v.1.13,2013-01-07 23:47:00,
2013-01-07 17:48:00,45.6,36.0,30.27,SE,134,0.0,0.0,69,0.00,,,0.01,Wunderground v.1.13,2013-01-07 23:48:00,
2013-01-07 17:49:00,45.4,35.8,30.27,SE,134,0.0,0.0,69,0.00,,,0.01,Wunderground v.1.13,2013-01-07 23:49:00,
2013-01-07 17:51:00,45.3,35.7,30.27,SE,134,0.0,0.0,69,0.00,,,0.01,Wunderground v.1.13,2013-01-07 23:51:00,
2013-01-07 17:52:00,45.3,35.7,30.27,SE,134,0.0,0.0,69,0.00,,,0.01,Wunderground v.1.13,2013-01-07 23:52:00,
2013-01-07 17:53:00,45.3,36.1,30.27,SE,134,0.0,0.0,70,0.00,,,0.01,Wunderground v.1.13,2013-01-07 23:53:00,
2013-01-07 17:54:00,45.1,36.3,30.27,SE,134,0.0,0.0,71,0.00,,,0.01,Wunderground v.1.13,2013-01-07 23:54:00,
2013-01-07 17:57:00,45.0,36.2,30.27,SE,134,0.0,0.0,71,0.00,,,0.01,Wunderground v.1.13,2013-01-07 23:57:00,
2013-01-07 17:58:00,45.0,36.2,30.27,SE,134,0.0,0.0,71,0.00,,,0.01,Wunderground v.1.13,2013-01-07 23:58:00,
2013-01-07 18:00:00,44.7,36.2,30.27,SE,134,0.0,0.0,72,0.00,,,0.01,Wunderground v.1.13,2013-01-08 00:00:00,
2013-01-07 18:02:00,44.6,36.1,30.28,SE,134,0.0,0.0,72,0.00,,,0.01,Wunderground v.1.13,2013-01-08 00:02:00,
2013-01-07 18:04:00,44.4,35.9,30.28,SE,134,0.0,0.0,72,0.00,,,0.01,Wunderground v.1.13,2013-01-08 00:04:00,
2013-01-07 18:05:00,44.3,35.8,30.28,SE,134,0.0,0.0,72,0.00,,,0.01,Wunderground v.1.13,2013-01-08 00:05:00,
2013-01-07 18:07:00,44.1,35.6,30.28,SE,134,0.0,0.0,72,0.00,,,0.01,Wunderground v.1.13,2013-01-08 00:07:00,
2013-01-07 18:09:00,43.9,35.5,30.28,SE,134,0.0,0.0,72,0.00,,,0.01,Wunderground v.1.13,2013-01-08 00:09:00,
2013-01-07 18:11:00,43.7,35.6,30.28,SE,134,0.0,0.0,73,0.00,,,0.01,Wunderground v.1.13,2013-01-08 00:11:00,
2013-01-07 18:12:00,43.6,35.5,30.28,SE,134,0.0,0.0,73,0.00,,,0.01,Wunderground v.1.13,2013-01-08 00:12:00,
2013-01-07 18:14:00,43.6,35.5,30.28,SE,134,0.0,0.0,73,0.00,,,0.01,Wunderground v.1.13,2013-01-08 00:14:00,
2013-01-07 18:16:00,43.4,35.3,30.28,SE,134,0.0,0.0,73,0.00,,,0.01,Wunderground v.1.13,2013-01-08 00:16:00,
2013-01-07 18:17:00,43.3,35.6,30.28,SE,134,0.0,0.0,74,0.00,,,0.01,Wunderground v.1.13,2013-01-08 00:17:00,
2013-01-07 18:18:00,43.1,35.4,30.28,SE,134,0.0,0.0,74,0.00,,,0.01,Wunderground v.1.13,2013-01-08 00:18:00,
2013-01-07 18:19:00,43.0,35.3,30.28,SE,134,0.0,0.0,74,0.00,,,0.01,Wunderground v.1.13,2013-01-08 00:19:00,
2013-01-07 18:21:00,42.7,35.3,30.28,SE,134,0.0,0.0,75,0.00,,,0.01,Wunderground v.1.13,2013-01-08 00:21:00,
2013-01-07 18:22:00,42.7,35.3,30.28,SE,134,0.0,0.0,75,0.00,,,0.01,Wunderground v.1.13,2013-01-08 00:22:00,
2013-01-07 18:23:00,42.6,35.2,30.28,SE,134,0.0,0.0,75,0.00,,,0.01,Wunderground v.1.13,2013-01-08 00:23:00,
2013-01-07 18:24:00,42.6,35.2,30.28,SE,134,0.0,0.0,75,0.00,,,0.01,Wunderground v.1.13,2013-01-08 00:24:00,
2013-01-07 18:26:00,42.3,34.9,30.28,SE,134,0.0,0.0,75,0.00,,,0.01,Wunderground v.1.13,2013-01-08 00:26:00,
2013-01-07 18:28:00,42.1,34.7,30.28,SE,134,0.0,0.0,75,0.00,,,0.01,Wunderground v.1.13,2013-01-08 00:28:00,
2013-01-07 18:29:00,42.1,35.1,30.28,SE,134,0.0,0.0,76,0.00,,,0.01,Wunderground v.1.13,2013-01-08 00:29:00,
2013-01-07 18:31:00,41.9,34.9,30.27,SE,134,0.0,0.0,76,0.00,,,0.01,Wunderground v.1.13,2013-01-08 00:31:00,
2013-01-07 18:33:00,41.9,34.9,30.27,SE,134,0.0,0.0,76,0.00,,,0.01,Wunderground v.1.13,2013-01-08 00:33:00,
2013-01-07 18:34:00,41.7,34.7,30.27,SE,134,0.0,0.0,76,0.00,,,0.01,Wunderground v.1.13,2013-01-08 00:34:00,
2013-01-07 18:36:00,41.4,34.7,30.27,SE,134,0.0,0.0,77,0.00,,,0.01,Wunderground v.1.13,2013-01-08 00:36:00,
2013-01-07 18:38:00,41.4,34.7,30.27,SE,134,0.0,0.0,77,0.00,,,0.01,Wunderground v.1.13,2013-01-08 00:38:00,
2013-01-07 18:39:00,41.3,34.6,30.27,SE,134,0.0,0.0,77,0.00,,,0.01,Wunderground v.1.13,2013-01-08 00:39:00,
2013-01-07 18:40:00,41.3,34.6,30.27,SE,134,0.0,0.0,77,0.00,,,0.01,Wunderground v.1.13,2013-01-08 00:40:00,
2013-01-07 18:42:00,41.1,34.4,30.27,SE,134,0.0,0.0,77,0.00,,,0.01,Wunderground v.1.13,2013-01-08 00:42:00,
2013-01-07 18:43:00,41.1,34.4,30.27,SE,134,0.0,0.0,77,0.00,,,0.01,Wunderground v.1.13,2013-01-08 00:43:00,
2013-01-07 18:44:00,41.0,34.7,30.27,SE,134,0.0,0.0,78,0.00,,,0.01,Wunderground v.1.13,2013-01-08 00:44:00,
2013-01-07 18:45:00,41.0,34.7,30.27,SE,134,0.0,0.0,78,0.00,,,0.01,Wunderground v.1.13,2013-01-08 00:45:00,
2013-01-07 18:47:00,40.9,34.6,30.28,SE,134,0.0,0.0,78,0.00,,,0.01,Wunderground v.1.13,2013-01-08 00:47:00,
2013-01-07 18:48:00,40.9,34.6,30.28,SE,134,0.0,0.0,78,0.00,,,0.01,Wunderground v.1.13,2013-01-08 00:48:00,
2013-01-07 18:49:00,40.9,34.6,30.28,SE,134,0.0,0.0,78,0.00,,,0.01,Wunderground v.1.13,2013-01-08 00:49:00,
2013-01-07 18:50:00,40.7,34.4,30.28,SE,134,0.0,0.0,78,0.00,,,0.01,Wunderground v.1.13,2013-01-08 00:50:00,
2013-01-07 18:52:00,40.7,34.4,30.28,SE,134,0.0,0.0,78,0.00,,,0.01,Wunderground v.1.13,2013-01-08 00:52:00,
2013-01-07 18:53:00,40.6,34.3,30.28,SE,134,0.0,0.0,78,0.00,,,0.01,Wunderground v.1.13,2013-01-08 00:53:00,
2013-01-07 18:54:00,40.6,34.3,30.28,SE,134,0.0,0.0,78,0.00,,,0.01,Wunderground v.1.13,2013-01-08 00:54:00,
2013-01-07 18:56:00,40.4,34.1,30.28,SE,134,0.0,0.0,78,0.00,,,0.01,Wunderground v.1.13,2013-01-08 00:56:00,
2013-01-07 18:57:00,40.4,34.4,30.28,SE,134,0.0,0.0,79,0.00,,,0.01,Wunderground v.1.13,2013-01-08 00:57:00,
2013-01-07 18:59:00,40.3,34.3,30.28,SE,134,0.0,0.0,79,0.00,,,0.01,Wunderground v.1.13,2013-01-08 00:59:00,
2013-01-07 19:01:00,40.1,34.1,30.28,SE,134,0.0,0.0,79,0.00,,,0.01,Wunderground v.1.13,2013-01-08 01:01:00,
2013-01-07 19:02:00,40.0,34.0,30.28,SE,134,0.0,0.0,79,0.00,,,0.01,Wunderground v.1.13,2013-01-08 01:02:00,
2013-01-07 19:04:00,39.9,34.2,30.28,SE,134,0.0,0.0,80,0.00,,,0.01,Wunderground v.1.13,2013-01-08 01:04:00,
2013-01-07 19:06:00,39.7,34.0,30.28,SE,134,0.0,0.0,80,0.00,,,0.01,Wunderground v.1.13,2013-01-08 01:06:00,
2013-01-07 19:07:00,39.7,34.0,30.28,SE,134,0.0,0.0,80,0.00,,,0.01,Wunderground v.1.13,2013-01-08 01:07:00,
2013-01-07 19:09:00,39.6,33.9,30.28,SE,134,0.0,0.0,80,0.00,,,0.01,Wunderground v.1.13,2013-01-08 01:09:00,
2013-01-07 19:10:00,39.4,33.7,30.28,SE,134,0.0,0.0,80,0.00,,,0.01,Wunderground v.1.13,2013-01-08 01:10:00,
2013-01-07 19:11:00,39.4,33.7,30.28,SE,134,0.0,0.0,80,0.00,,,0.01,Wunderground v.1.13,2013-01-08 01:11:00,
2013-01-07 19:13:00,39.3,34.0,30.28,SE,134,0.0,0.0,81,0.00,,,0.01,Wunderground v.1.13,2013-01-08 01:13:00,
2013-01-07 19:14:00,39.3,34.0,30.28,SE,134,0.0,0.0,81,0.00,,,0.01,Wunderground v.1.13,2013-01-08 01:14:00,
2013-01-07 19:15:00,39.1,33.8,30.28,SE,134,0.0,0.0,81,0.00,,,0.01,Wunderground v.1.13,2013-01-08 01:15:00,
2013-01-07 19:16:00,39.1,33.8,30.27,SE,134,0.0,0.0,81,0.00,,,0.01,Wunderground v.1.13,2013-01-08 01:16:00,
2013-01-07 19:18:00,39.0,33.7,30.27,SE,134,0.0,0.0,81,0.00,,,0.01,Wunderground v.1.13,2013-01-08 01:18:00,
2013-01-07 19:19:00,39.0,33.7,30.27,SE,134,0.0,0.0,81,0.00,,,0.01,Wunderground v.1.13,2013-01-08 01:19:00,
2013-01-07 19:21:00,39.0,33.7,30.27,SE,134,0.0,0.0,81,0.00,,,0.01,Wunderground v.1.13,2013-01-08 01:21:00,
2013-01-07 19:23:00,38.8,33.5,30.27,SE,134,0.0,0.0,81,0.00,,,0.01,Wunderground v.1.13,2013-01-08 01:23:00,
2013-01-07 19:25:00,38.8,33.5,30.27,SE,134,0.0,0.0,81,0.00,,,0.01,Wunderground v.1.13,2013-01-08 01:25:00,
2013-01-07 19:26:00,38.8,33.5,30.27,SE,134,0.0,0.0,81,0.00,,,0.01,Wunderground v.1.13,2013-01-08 01:26:00,
2013-01-07 19:27:00,38.8,33.5,30.27,SE,134,0.0,0.0,81,0.00,,,0.01,Wunderground v.1.13,2013-01-08 01:27:00,
2013-01-07 19:28:00,38.8,33.5,30.27,SE,134,0.0,0.0,81,0.00,,,0.01,Wunderground v.1.13,2013-01-08 01:28:00,
2013-01-07 19:30:00,38.7,33.7,30.27,SE,134,0.0,0.0,82,0.00,,,0.01,Wunderground v.1.13,2013-01-08 01:30:00,
2013-01-07 19:31:00,38.7,33.7,30.28,SE,134,0.0,0.0,82,0.00,,,0.01,Wunderground v.1.13,2013-01-08 01:31:00,
2013-01-07 19:32:00,38.7,33.7,30.28,SE,134,0.0,0.0,82,0.00,,,0.01,Wunderground v.1.13,2013-01-08 01:32:00,
2013-01-07 19:34:00,38.6,33.6,30.28,SE,134,0.0,0.0,82,0.00,,,0.01,Wunderground v.1.13,2013-01-08 01:34:00,
2013-01-07 19:35:00,38.6,33.6,30.28,SE,134,0.0,0.0,82,0.00,,,0.01,Wunderground v.1.13,2013-01-08 01:35:00,
2013-01-07 19:36:00,38.6,33.6,30.28,SE,134,0.0,0.0,82,0.00,,,0.01,Wunderground v.1.13,2013-01-08 01:36:00,
2013-01-07 19:37:00,38.4,33.4,30.28,SE,134,0.0,0.0,82,0.00,,,0.01,Wunderground v.1.13,2013-01-08 01:37:00,
2013-01-07 19:39:00,38.4,33.4,30.28,SE,134,0.0,0.0,82,0.00,,,0.01,Wunderground v.1.13,2013-01-08 01:39:00,
2013-01-07 19:40:00,38.3,33.6,30.28,SE,134,0.0,0.0,83,0.00,,,0.01,Wunderground v.1.13,2013-01-08 01:40:00,
2013-01-07 19:41:00,38.3,33.6,30.28,SE,134,0.0,0.0,83,0.00,,,0.01,Wunderground v.1.13,2013-01-08 01:41:00,
2013-01-07 19:42:00,38.1,33.4,30.28,SE,134,0.0,0.0,83,0.00,,,0.01,Wunderground v.1.13,2013-01-08 01:42:00,
2013-01-07 19:44:00,38.1,33.4,30.28,SE,134,0.0,0.0,83,0.00,,,0.01,Wunderground v.1.13,2013-01-08 01:44:00,
2013-01-07 19:45:00,38.0,33.3,30.28,SE,134,0.0,0.0,83,0.00,,,0.01,Wunderground v.1.13,2013-01-08 01:45:00,
2013-01-07 19:47:00,38.0,33.3,30.28,SE,134,0.0,0.0,83,0.00,,,0.01,Wunderground v.1.13,2013-01-08 01:47:00,
2013-01-07 19:48:00,38.0,33.3,30.28,SE,134,0.0,0.0,83,0.00,,,0.01,Wunderground v.1.13,2013-01-08 01:48:00,
2013-01-07 19:49:00,37.8,33.1,30.28,SE,134,0.0,0.0,83,0.00,,,0.01,Wunderground v.1.13,2013-01-08 01:49:00,
2013-01-07 19:50:00,37.8,33.1,30.28,SE,134,0.0,0.0,83,0.00,,,0.01,Wunderground v.1.13,2013-01-08 01:50:00,
2013-01-07 19:52:00,37.8,33.1,30.28,SE,134,0.0,0.0,83,0.00,,,0.01,Wunderground v.1.13,2013-01-08 01:52:00,
2013-01-07 19:53:00,37.7,33.0,30.28,SE,134,0.0,0.0,83,0.00,,,0.01,Wunderground v.1.13,2013-01-08 01:53:00,
2013-01-07 19:54:00,37.7,33.0,30.28,SE,134,0.0,0.0,83,0.00,,,0.01,Wunderground v.1.13,2013-01-08 01:54:00,
2013-01-07 19:55:00,37.6,33.2,30.28,SE,134,0.0,0.0,84,0.00,,,0.01,Wunderground v.1.13,2013-01-08 01:55:00,
2013-01-07 19:57:00,37.6,33.2,30.28,SE,134,0.0,0.0,84,0.00,,,0.01,Wunderground v.1.13,2013-01-08 01:57:00,
2013-01-07 19:58:00,37.4,33.0,30.28,SE,134,0.0,0.0,84,0.00,,,0.01,Wunderground v.1.13,2013-01-08 01:58:00,
2013-01-07 20:00:00,37.4,33.0,30.28,SE,134,0.0,0.0,84,0.00,,,0.01,Wunderground v.1.13,2013-01-08 02:00:00,
2013-01-07 20:01:00,37.3,32.9,30.28,SE,134,0.0,0.0,84,0.00,,,0.01,Wunderground v.1.13,2013-01-08 02:01:00,
2013-01-07 20:02:00,37.3,32.9,30.28,SE,134,0.0,0.0,84,0.00,,,0.01,Wunderground v.1.13,2013-01-08 02:02:00,
2013-01-07 20:03:00,37.3,32.9,30.28,SE,134,0.0,0.0,84,0.00,,,0.01,Wunderground v.1.13,2013-01-08 02:03:00,
2013-01-07 20:05:00,37.3,32.9,30.28,SE,134,0.0,0.0,84,0.00,,,0.01,Wunderground v.1.13,2013-01-08 02:05:00,
2013-01-07 20:06:00,37.1,32.7,30.28,SE,134,0.0,0.0,84,0.00,,,0.01,Wunderground v.1.13,2013-01-08 02:06:00,
2013-01-07 20:07:00,37.1,32.7,30.28,SE,134,0.0,0.0,84,0.00,,,0.01,Wunderground v.1.13,2013-01-08 02:07:00,
2013-01-07 20:08:00,37.1,32.7,30.28,SE,134,0.0,0.0,84,0.00,,,0.01,Wunderground v.1.13,2013-01-08 02:08:00,
2013-01-07 20:10:00,37.0,32.9,30.28,SE,134,0.0,0.0,85,0.00,,,0.01,Wunderground v.1.13,2013-01-08 02:10:00,
2013-01-07 20:11:00,37.0,32.9,30.28,SE,134,0.0,0.0,85,0.00,,,0.01,Wunderground v.1.13,2013-01-08 02:11:00,
2013-01-07 20:12:00,37.0,32.9,30.28,SE,134,0.0,0.0,85,0.00,,,0.01,Wunderground v.1.13,2013-01-08 02:12:00,
2013-01-07 20:13:00,36.8,32.7,30.28,SE,134,0.0,0.0,85,0.00,,,0.01,Wunderground v.1.13,2013-01-08 02:13:00,
2013-01-07 20:15:00,36.8,32.7,30.28,SE,134,0.0,0.0,85,0.00,,,0.01,Wunderground v.1.13,2013-01-08 02:15:00,
2013-01-07 20:16:00,36.7,32.6,30.28,SE,134,0.0,0.0,85,0.00,,,0.01,Wunderground v.1.13,2013-01-08 02:16:00,
2013-01-07 20:17:00,36.7,32.6,30.28,SE,134,0.0,0.0,85,0.00,,,0.01,Wunderground v.1.13,2013-01-08 02:17:00,
2013-01-07 20:18:00,36.6,32.5,30.28,SE,134,0.0,0.0,85,0.00,,,0.01,Wunderground v.1.13,2013-01-08 02:18:00,
2013-01-07 20:21:00,36.4,32.3,30.28,SE,134,0.0,0.0,85,0.00,,,0.01,Wunderground v.1.13,2013-01-08 02:21:00,
2013-01-07 20:22:00,36.4,32.3,30.28,SE,134,0.0,0.0,85,0.00,,,0.01,Wunderground v.1.13,2013-01-08 02:22:00,
2013-01-07 20:23:00,36.4,32.3,30.28,SE,134,0.0,0.0,85,0.00,,,0.01,Wunderground v.1.13,2013-01-08 02:23:00,
2013-01-07 20:26:00,36.3,32.5,30.28,SE,134,0.0,0.0,86,0.00,,,0.01,Wunderground v.1.13,2013-01-08 02:26:00,
2013-01-07 20:28:00,36.3,32.5,30.28,SE,134,0.0,0.0,86,0.00,,,0.01,Wunderground v.1.13,2013-01-08 02:28:00,
2013-01-07 20:31:00,36.1,32.3,30.28,SE,134,0.0,0.0,86,0.00,,,0.01,Wunderground v.1.13,2013-01-08 02:31:00,
2013-01-07 20:33:00,36.1,32.3,30.28,SE,134,0.0,0.0,86,0.00,,,0.01,Wunderground v.1.13,2013-01-08 02:33:00,
2013-01-07 20:36:00,36.0,32.2,30.28,SE,134,0.0,0.0,86,0.00,,,0.01,Wunderground v.1.13,2013-01-08 02:36:00,
2013-01-07 20:37:00,36.0,32.2,30.28,SE,134,0.0,0.0,86,0.00,,,0.01,Wunderground v.1.13,2013-01-08 02:37:00,
2013-01-07 20:38:00,36.0,32.2,30.28,SE,134,0.0,0.0,86,0.00,,,0.01,Wunderground v.1.13,2013-01-08 02:38:00,
2013-01-07 20:39:00,36.0,32.2,30.28,SE,134,0.0,0.0,86,0.00,,,0.01,Wunderground v.1.13,2013-01-08 02:39:00,
2013-01-07 20:41:00,35.8,32.0,30.28,SE,134,0.0,0.0,86,0.00,,,0.01,Wunderground v.1.13,2013-01-08 02:41:00,
2013-01-07 20:42:00,35.8,32.0,30.28,SE,134,0.0,0.0,86,0.00,,,0.01,Wunderground v.1.13,2013-01-08 02:42:00,
2013-01-07 20:43:00,35.8,32.3,30.28,SE,134,0.0,0.0,87,0.00,,,0.01,Wunderground v.1.13,2013-01-08 02:43:00,
2013-01-07 20:44:00,35.8,32.3,30.28,SE,134,0.0,0.0,87,0.00,,,0.01,Wunderground v.1.13,2013-01-08 02:44:00,
2013-01-07 20:46:00,35.7,32.2,30.28,SE,134,0.0,0.0,87,0.00,,,0.01,Wunderground v.1.13,2013-01-08 02:46:00,
2013-01-07 20:48:00,35.7,32.2,30.28,SE,134,0.0,0.0,87,0.00,,,0.01,Wunderground v.1.13,2013-01-08 02:48:00,
2013-01-07 20:49:00,35.7,32.2,30.28,SE,134,0.0,0.0,87,0.00,,,0.01,Wunderground v.1.13,2013-01-08 02:49:00,
2013-01-07 20:52:00,35.7,32.2,30.28,SE,134,0.0,0.0,87,0.00,,,0.01,Wunderground v.1.13,2013-01-08 02:52:00,
2013-01-07 20:53:00,35.7,32.2,30.28,SE,134,0.0,0.0,87,0.00,,,0.01,Wunderground v.1.13,2013-01-08 02:53:00,
2013-01-07 20:54:00,35.7,32.2,30.28,SE,134,0.0,0.0,87,0.00,,,0.01,Wunderground v.1.13,2013-01-08 02:54:00,
2013-01-07 20:57:00,35.5,32.0,30.28,SE,134,0.0,0.0,87,0.00,,,0.01,Wunderground v.1.13,2013-01-08 02:57:00,
2013-01-07 20:58:00,35.5,32.0,30.28,SE,134,0.0,0.0,87,0.00,,,0.01,Wunderground v.1.13,2013-01-08 02:58:00,
2013-01-07 21:00:00,35.5,32.0,30.28,SE,134,0.0,0.0,87,0.00,,,0.01,Wunderground v.1.13,2013-01-08 03:00:00,
2013-01-07 21:02:00,35.5,32.0,30.28,SE,134,0.0,0.0,87,0.00,,,0.01,Wunderground v.1.13,2013-01-08 03:02:00,
2013-01-07 21:03:00,35.5,32.0,30.28,SE,134,0.0,0.0,87,0.00,,,0.01,Wunderground v.1.13,2013-01-08 03:03:00,
2013-01-07 21:04:00,35.5,32.0,30.28,SE,134,0.0,0.0,87,0.00,,,0.01,Wunderground v.1.13,2013-01-08 03:04:00,
2013-01-07 21:05:00,35.4,31.9,30.28,SE,134,0.0,0.0,87,0.00,,,0.01,Wunderground v.1.13,2013-01-08 03:05:00,
2013-01-07 21:07:00,35.4,31.9,30.28,SE,134,0.0,0.0,87,0.00,,,0.01,Wunderground v.1.13,2013-01-08 03:07:00,
2013-01-07 21:08:00,35.4,31.9,30.28,SE,134,0.0,0.0,87,0.00,,,0.01,Wunderground v.1.13,2013-01-08 03:08:00,
2013-01-07 21:09:00,35.4,31.9,30.28,SE,134,0.0,0.0,87,0.00,,,0.01,Wunderground v.1.13,2013-01-08 03:09:00,
2013-01-07 21:10:00,35.4,31.9,30.28,SE,134,0.0,0.0,87,0.00,,,0.01,Wunderground v.1.13,2013-01-08 03:10:00,
2013-01-07 21:13:00,35.4,31.9,30.28,SE,134,0.0,0.0,87,0.00,,,0.01,Wunderground v.1.13,2013-01-08 03:13:00,
2013-01-07 21:14:00,35.4,31.9,30.28,SE,134,0.0,0.0,87,0.00,,,0.01,Wunderground v.1.13,2013-01-08 03:14:00,
2013-01-07 21:15:00,35.4,32.2,30.28,SE,134,0.0,0.0,88,0.00,,,0.01,Wunderground v.1.13,2013-01-08 03:15:00,
2013-01-07 21:18:00,35.4,32.2,30.28,SE,134,0.0,0.0,88,0.00,,,0.01,Wunderground v.1.13,2013-01-08 03:18:00,
2013-01-07 21:19:00,35.4,32.2,30.28,SE,134,0.0,0.0,88,0.00,,,0.01,Wunderground v.1.13,2013-01-08 03:19:00,
2013-01-07 21:20:00,35.4,32.2,30.28,SE,134,0.0,0.0,88,0.00,,,0.01,Wunderground v.1.13,2013-01-08 03:20:00,
2013-01-07 21:23:00,35.2,32.0,30.28,SE,134,0.0,0.0,88,0.00,,,0.01,Wunderground v.1.13,2013-01-08 03:23:00,
2013-01-07 21:24:00,35.2,32.0,30.28,SE,134,0.0,0.0,88,0.00,,,0.01,Wunderground v.1.13,2013-01-08 03:24:00,
2013-01-07 21:25:00,35.2,32.0,30.28,SE,134,0.0,0.0,88,0.00,,,0.01,Wunderground v.1.13,2013-01-08 03:25:00,
2013-01-07 21:28:00,35.1,31.9,30.28,SE,134,0.0,0.0,88,0.00,,,0.01,Wunderground v.1.13,2013-01-08 03:28:00,
2013-01-07 21:29:00,35.1,31.9,30.28,SE,134,0.0,0.0,88,0.00,,,0.01,Wunderground v.1.13,2013-01-08 03:29:00,
2013-01-07 21:30:00,35.1,31.9,30.28,SE,134,0.0,0.0,88,0.00,,,0.01,Wunderground v.1.13,2013-01-08 03:30:00,
2013-01-07 21:33:00,34.9,31.7,30.28,SE,134,0.0,0.0,88,0.00,,,0.01,Wunderground v.1.13,2013-01-08 03:33:00,
2013-01-07 21:34:00,34.9,31.7,30.28,SE,134,0.0,0.0,88,0.00,,,0.01,Wunderground v.1.13,2013-01-08 03:34:00,
2013-01-07 21:35:00,34.9,31.7,30.28,SE,134,0.0,0.0,88,0.00,,,0.01,Wunderground v.1.13,2013-01-08 03:35:00,
2013-01-07 21:38:00,34.8,31.6,30.28,SE,134,0.0,0.0,88,0.00,,,0.01,Wunderground v.1.13,2013-01-08 03:38:00,
2013-01-07 21:39:00,34.8,31.6,30.28,SE,134,0.0,0.0,88,0.00,,,0.01,Wunderground v.1.13,2013-01-08 03:39:00,
2013-01-07 21:40:00,34.8,31.6,30.28,SE,134,0.0,0.0,88,0.00,,,0.01,Wunderground v.1.13,2013-01-08 03:40:00,
2013-01-07 21:41:00,34.8,31.9,30.28,SE,134,0.0,0.0,89,0.00,,,0.01,Wunderground v.1.13,2013-01-08 03:41:00,
2013-01-07 21:44:00,34.8,31.9,30.28,SE,134,0.0,0.0,89,0.00,,,0.01,Wunderground v.1.13,2013-01-08 03:44:00,
2013-01-07 21:45:00,34.6,31.7,30.28,SE,134,0.0,0.0,89,0.00,,,0.01,Wunderground v.1.13,2013-01-08 03:45:00,
2013-01-07 21:46:00,34.6,31.7,30.28,SE,134,0.0,0.0,89,0.00,,,0.01,Wunderground v.1.13,2013-01-08 03:46:00,
2013-01-07 21:49:00,34.6,31.7,30.28,SE,134,0.0,0.0,89,0.00,,,0.01,Wunderground v.1.13,2013-01-08 03:49:00,
2013-01-07 21:50:00,34.6,31.7,30.28,SE,134,0.0,0.0,89,0.00,,,0.01,Wunderground v.1.13,2013-01-08 03:50:00,
2013-01-07 21:51:00,34.6,31.7,30.28,SE,134,0.0,0.0,89,0.00,,,0.01,Wunderground v.1.13,2013-01-08 03:51:00,
2013-01-07 21:54:00,34.5,31.6,30.28,SE,134,0.0,0.0,89,0.00,,,0.01,Wunderground v.1.13,2013-01-08 03:54:00,
2013-01-07 21:55:00,34.5,31.6,30.28,SE,134,0.0,0.0,89,0.00,,,0.01,Wunderground v.1.13,2013-01-08 03:55:00,
2013-01-07 21:56:00,34.5,31.6,30.28,SE,134,0.0,0.0,89,0.00,,,0.01,Wunderground v.1.13,2013-01-08 03:56:00,
2013-01-07 21:57:00,34.5,31.6,30.28,SE,134,0.0,0.0,89,0.00,,,0.01,Wunderground v.1.13,2013-01-08 03:57:00,
2013-01-07 21:59:00,34.5,31.6,30.28,SE,134,0.0,0.0,89,0.00,,,0.01,Wunderground v.1.13,2013-01-08 03:59:00,
2013-01-07 22:01:00,34.3,31.4,30.28,SE,134,0.0,0.0,89,0.00,,,0.01,Wunderground v.1.13,2013-01-08 04:01:00,
2013-01-07 22:02:00,34.3,31.4,30.28,SE,134,0.0,0.0,89,0.00,,,0.01,Wunderground v.1.13,2013-01-08 04:02:00,
2013-01-07 22:04:00,34.3,31.4,30.28,SE,134,0.0,0.0,89,0.00,,,0.01,Wunderground v.1.13,2013-01-08 04:04:00,
2013-01-07 22:06:00,34.3,31.4,30.28,SE,134,0.0,0.0,89,0.00,,,0.01,Wunderground v.1.13,2013-01-08 04:06:00,
2013-01-07 22:07:00,34.3,31.7,30.28,SE,134,0.0,0.0,90,0.00,,,0.01,Wunderground v.1.13,2013-01-08 04:07:00,
2013-01-07 22:09:00,34.3,31.7,30.28,SE,134,0.0,0.0,90,0.00,,,0.01,Wunderground v.1.13,2013-01-08 04:09:00,
2013-01-07 22:11:00,34.3,31.7,30.28,SE,134,0.0,0.0,90,0.00,,,0.01,Wunderground v.1.13,2013-01-08 04:11:00,
2013-01-07 22:12:00,34.3,31.7,30.28,SE,134,0.0,0.0,90,0.00,,,0.01,Wunderground v.1.13,2013-01-08 04:12:00,
2013-01-07 22:14:00,34.3,31.7,30.28,SE,134,0.0,0.0,90,0.00,,,0.01,Wunderground v.1.13,2013-01-08 04:14:00,
2013-01-07 22:17:00,34.3,31.7,30.28,SE,134,0.0,0.0,90,0.00,,,0.01,Wunderground v.1.13,2013-01-08 04:17:00,
2013-01-07 22:20:00,34.2,31.6,30.28,SE,134,0.0,0.0,90,0.00,,,0.01,Wunderground v.1.13,2013-01-08 04:20:00,
2013-01-07 22:22:00,34.2,31.6,30.28,SE,134,0.0,0.0,90,0.00,,,0.01,Wunderground v.1.13,2013-01-08 04:22:00,
2013-01-07 22:23:00,34.2,31.6,30.28,SE,134,0.0,0.0,90,0.00,,,0.01,Wunderground v.1.13,2013-01-08 04:23:00,
2013-01-07 22:25:00,34.2,31.6,30.28,SE,134,0.0,0.0,90,0.00,,,0.01,Wunderground v.1.13,2013-01-08 04:25:00,
2013-01-07 22:27:00,34.2,31.6,30.28,SE,134,0.0,0.0,90,0.00,,,0.01,Wunderground v.1.13,2013-01-08 04:27:00,
2013-01-07 22:28:00,34.2,31.6,30.28,SE,134,0.0,0.0,90,0.00,,,0.01,Wunderground v.1.13,2013-01-08 04:28:00,
2013-01-07 22:31:00,34.0,31.4,30.27,SE,134,0.0,0.0,90,0.00,,,0.01,Wunderground v.1.13,2013-01-08 04:31:00,
2013-01-07 22:32:00,34.0,31.4,30.27,SE,134,0.0,0.0,90,0.00,,,0.01,Wunderground v.1.13,2013-01-08 04:32:00,
2013-01-07 22:33:00,34.0,31.4,30.27,SE,134,0.0,0.0,90,0.00,,,0.01,Wunderground v.1.13,2013-01-08 04:33:00,
2013-01-07 22:34:00,34.0,31.4,30.27,SE,134,0.0,0.0,90,0.00,,,0.01,Wunderground v.1.13,2013-01-08 04:34:00,
2013-01-07 22:36:00,34.0,31.4,30.27,SE,134,0.0,0.0,90,0.00,,,0.01,Wunderground v.1.13,2013-01-08 04:36:00,
2013-01-07 22:38:00,33.9,31.3,30.27,SE,134,0.0,0.0,90,0.00,,,0.01,Wunderground v.1.13,2013-01-08 04:38:00,
2013-01-07 22:39:00,33.9,31.3,30.27,SE,134,0.0,0.0,90,0.00,,,0.01,Wunderground v.1.13,2013-01-08 04:39:00,
2013-01-07 22:40:00,33.9,31.3,30.27,SE,134,0.0,0.0,90,0.00,,,0.01,Wunderground v.1.13,2013-01-08 04:40:00,
2013-01-07 22:41:00,33.9,31.3,30.27,SE,134,0.0,0.0,90,0.00,,,0.01,Wunderground v.1.13,2013-01-08 04:41:00,
2013-01-07 22:43:00,33.9,31.3,30.27,SE,134,0.0,0.0,90,0.00,,,0.01,Wunderground v.1.13,2013-01-08 04:43:00,
2013-01-07 22:44:00,33.9,31.3,30.27,SE,134,0.0,0.0,90,0.00,,,0.01,Wunderground v.1.13,2013-01-08 04:44:00,
2013-01-07 22:45:00,33.9,31.3,30.27,SE,134,0.0,0.0,90,0.00,,,0.01,Wunderground v.1.13,2013-01-08 04:45:00,
2013-01-07 22:47:00,33.9,31.3,30.27,SE,134,0.0,0.0,90,0.00,,,0.01,Wunderground v.1.13,2013-01-08 04:47:00,
2013-01-07 22:48:00,33.7,31.1,30.27,SE,134,0.0,0.0,90,0.00,,,0.01,Wunderground v.1.13,2013-01-08 04:48:00,
2013-01-07 22:49:00,33.7,31.1,30.27,SE,134,0.0,0.0,90,0.00,,,0.01,Wunderground v.1.13,2013-01-08 04:49:00,
2013-01-07 22:50:00,33.7,31.1,30.27,SE,134,0.0,0.0,90,0.00,,,0.01,Wunderground v.1.13,2013-01-08 04:50:00,
2013-01-07 22:52:00,33.7,31.1,30.27,SE,134,0.0,0.0,90,0.00,,,0.01,Wunderground v.1.13,2013-01-08 04:52:00,
2013-01-07 22:53:00,33.7,31.1,30.27,SE,134,0.0,0.0,90,0.00,,,0.01,Wunderground v.1.13,2013-01-08 04:53:00,
2013-01-07 22:54:00,33.7,31.1,30.27,SE,134,0.0,0.0,90,0.00,,,0.01,Wunderground v.1.13,2013-01-08 04:54:00,
2013-01-07 22:55:00,33.7,31.1,30.27,SE,134,0.0,0.0,90,0.00,,,0.01,Wunderground v.1.13,2013-01-08 04:55:00,
2013-01-07 22:57:00,33.7,31.1,30.27,SE,134,0.0,0.0,90,0.00,,,0.01,Wunderground v.1.13,2013-01-08 04:57:00,
2013-01-07 22:58:00,33.7,31.1,30.27,SE,134,0.0,0.0,90,0.00,,,0.01,Wunderground v.1.13,2013-01-08 04:58:00,
2013-01-07 22:59:00,33.7,31.1,30.27,SE,134,0.0,0.0,90,0.00,,,0.01,Wunderground v.1.13,2013-01-08 04:59:00,
2013-01-07 23:00:00,33.7,31.1,30.27,SE,134,0.0,0.0,90,0.00,,,0.01,Wunderground v.1.13,2013-01-08 05:00:00,
2013-01-07 23:03:00,33.7,31.1,30.27,SE,134,0.0,0.0,90,0.00,,,0.01,Wunderground v.1.13,2013-01-08 05:03:00,
2013-01-07 23:06:00,33.9,31.3,30.27,SE,134,0.0,0.0,90,0.00,,,0.01,Wunderground v.1.13,2013-01-08 05:06:00,
2013-01-07 23:08:00,33.7,31.1,30.27,SE,134,0.0,0.0,90,0.00,,,0.01,Wunderground v.1.13,2013-01-08 05:08:00,
2013-01-07 23:11:00,33.7,31.1,30.27,SE,134,0.0,0.0,90,0.00,,,0.01,Wunderground v.1.13,2013-01-08 05:11:00,
2013-01-07 23:13:00,33.7,31.1,30.27,SE,134,0.0,0.0,90,0.00,,,0.01,Wunderground v.1.13,2013-01-08 05:13:00,
2013-01-07 23:16:00,33.9,31.3,30.27,SE,134,0.0,0.0,90,0.00,,,0.01,Wunderground v.1.13,2013-01-08 05:16:00,
2013-01-07 23:18:00,33.9,31.3,30.27,SE,134,0.0,0.0,90,0.00,,,0.01,Wunderground v.1.13,2013-01-08 05:18:00,
2013-01-07 23:19:00,33.9,31.3,30.27,SE,134,0.0,0.0,90,0.00,,,0.01,Wunderground v.1.13,2013-01-08 05:19:00,
2013-01-07 23:22:00,33.9,31.6,30.27,SE,134,0.0,0.0,91,0.00,,,0.01,Wunderground v.1.13,2013-01-08 05:22:00,
2013-01-07 23:24:00,34.0,31.6,30.27,SE,134,0.0,0.0,91,0.00,,,0.01,Wunderground v.1.13,2013-01-08 05:24:00,
2013-01-07 23:25:00,34.0,31.6,30.27,SE,134,0.0,0.0,91,0.00,,,0.01,Wunderground v.1.13,2013-01-08 05:25:00,
2013-01-07 23:28:00,34.0,31.6,30.27,SE,134,0.0,0.0,91,0.00,,,0.01,Wunderground v.1.13,2013-01-08 05:28:00,
2013-01-07 23:29:00,34.0,31.6,30.27,SE,134,0.0,0.0,91,0.00,,,0.01,Wunderground v.1.13,2013-01-08 05:29:00,
2013-01-07 23:30:00,34.0,31.6,30.27,SE,134,0.0,0.0,91,0.00,,,0.01,Wunderground v.1.13,2013-01-08 05:30:00,
2013-01-07 23:33:00,34.0,31.6,30.27,SE,134,0.0,0.0,91,0.00,,,0.01,Wunderground v.1.13,2013-01-08 05:33:00,
2013-01-07 23:34:00,34.0,31.6,30.27,SE,134,0.0,0.0,91,0.00,,,0.01,Wunderground v.1.13,2013-01-08 05:34:00,
2013-01-07 23:35:00,34.0,31.6,30.27,SE,134,0.0,0.0,91,0.00,,,0.01,Wunderground v.1.13,2013-01-08 05:35:00,
2013-01-07 23:38:00,34.0,31.6,30.27,SE,134,0.0,0.0,91,0.00,,,0.01,Wunderground v.1.13,2013-01-08 05:38:00,
2013-01-07 23:39:00,34.0,31.6,30.27,SE,134,0.0,0.0,91,0.00,,,0.01,Wunderground v.1.13,2013-01-08 05:39:00,
2013-01-07 23:40:00,34.0,31.6,30.27,SE,134,0.0,0.0,91,0.00,,,0.01,Wunderground v.1.13,2013-01-08 05:40:00,
2013-01-07 23:43:00,34.0,31.6,30.27,SE,134,0.0,0.0,91,0.00,,,0.01,Wunderground v.1.13,2013-01-08 05:43:00,
2013-01-07 23:44:00,34.0,31.6,30.27,SE,134,0.0,0.0,91,0.00,,,0.01,Wunderground v.1.13,2013-01-08 05:44:00,
2013-01-07 23:45:00,34.2,31.8,30.27,SE,134,0.0,0.0,91,0.00,,,0.01,Wunderground v.1.13,2013-01-08 05:45:00,
2013-01-07 23:48:00,34.3,31.9,30.27,SE,134,0.0,0.0,91,0.00,,,0.01,Wunderground v.1.13,2013-01-08 05:48:00,
2013-01-07 23:49:00,34.3,31.9,30.27,SE,134,0.0,0.0,91,0.00,,,0.01,Wunderground v.1.13,2013-01-08 05:49:00,
2013-01-07 23:50:00,34.3,31.9,30.27,SE,134,0.0,0.0,91,0.00,,,0.01,Wunderground v.1.13,2013-01-08 05:50:00,
2013-01-07 23:53:00,34.3,31.9,30.27,SE,134,0.0,0.0,91,0.00,,,0.01,Wunderground v.1.13,2013-01-08 05:53:00,
2013-01-07 23:54:00,34.5,32.1,30.27,SE,134,0.0,0.0,91,0.00,,,0.01,Wunderground v.1.13,2013-01-08 05:54:00,
2013-01-07 23:55:00,34.5,32.1,30.27,SE,134,0.0,0.0,91,0.00,,,0.01,Wunderground v.1.13,2013-01-08 05:55:00,
2013-01-07 23:56:00,34.3,31.9,30.27,SE,134,0.0,0.0,91,0.00,,,0.01,Wunderground v.1.13,2013-01-08 05:56:00,
2013-01-07 23:59:00,34.5,32.1,30.27,SE,134,0.0,0.0,91,0.00,,,0.01,Wunderground v.1.13,2013-01-08 05:59:00,